M I D A S
Marine Information and Data Acquisition System
Tripno 694 of the Zeeleeuw from 2004-04-14 06:14:40 to 2004-04-14 15:42:14
Back to CruiseResearch ActivitiesStationsMapUnderway DataData graphs

EquipmentUnitsComment
TimeDGPSUTC
LatitudeDGPSDM.mWGS84
LongitudeDGPSDM.mWGS84
TemperatureSBE03/SBE38deg celciusITS90
ConductivitySBE21S/mITS90
SalinitySBE21 Practical Salinity Units
ChlorophylAChelsea fluorimeterg/lCalibrated in Aceton
Missing or incorrect values are displayed as -999
Sea surface data collected by the RV Zeeleeuw from 2004-04-14 06:14:40 to 2004-04-14 15:42:14
                                                                                    Next 1000 lines
Time Latitude Longitude Temperature Conductivity Salinity ChlorophylA
2004-04-14 06:14:48 51°13.653 2°55.978 15.610909 0.011624 0.067729 -0.241899
2004-04-14 06:14:53 51°13.653 2°55.978 15.610909 0.011624 0.067729 -0.241899
2004-04-14 06:14:59 51°13.653 2°55.978 15.605951 0.011624 0.06773 -0.241899
2004-04-14 06:15:04 51°13.653 2°55.977 15.530022 0.011624 0.067731 -0.275608
2004-04-14 06:15:08 51°13.653 2°55.975 15.52972 0.011624 0.067732 -0.241899
2004-04-14 06:15:13 51°13.654 2°55.972 15.582016 0.011624 0.067734 -0.17448
2004-04-14 06:15:19 51°13.655 2°55.966 15.555528 0.011624 0.067734 -0.208189
2004-04-14 06:15:24 51°13.657 2°55.961 15.555528 0.011624 0.067734 -0.208189
2004-04-14 06:15:29 51°13.658 2°55.956 15.644013 0.011624 0.067736 -0.241899
2004-04-14 06:15:34 51°13.659 2°55.95 15.593834 0.011624 0.067737 -0.241899
2004-04-14 06:15:39 51°13.661 2°55.943 15.593748 0.011624 0.067737 -0.241899
2004-04-14 06:15:44 51°13.662 2°55.936 15.594265 0.011624 0.067738 -0.208189
2004-04-14 06:15:49 51°13.664 2°55.929 15.602458 0.011624 0.067739 -0.208189
2004-04-14 06:15:54 51°13.665 2°55.921 15.602458 0.011624 0.067739 -0.208189
2004-04-14 06:15:59 51°13.667 2°55.912 15.60539 0.011624 0.06774 -0.241899
2004-04-14 06:16:04 51°13.668 2°55.904 15.602588 0.011624 0.067741 -0.241899
2004-04-14 06:16:09 51°13.669 2°55.895 15.618971 0.011624 0.067741 -0.241899
2004-04-14 06:16:14 51°13.671 2°55.885 15.618023 0.011624 0.067742 -0.275608
2004-04-14 06:16:19 51°13.672 2°55.876 15.605218 0.011624 0.067743 -0.208189
2004-04-14 06:16:24 51°13.673 2°55.866 15.605218 0.011624 0.067743 -0.208189
2004-04-14 06:16:29 51°13.674 2°55.856 15.612763 0.011624 0.067745 -0.17448
2004-04-14 06:16:34 51°13.675 2°55.845 15.61535 0.011624 0.067745 -0.208189
2004-04-14 06:16:39 51°13.675 2°55.835 15.591936 0.011624 0.067746 -0.241899
2004-04-14 06:16:44 51°13.676 2°55.824 15.59931 0.011624 0.067747 -0.241899
2004-04-14 06:16:49 51°13.676 2°55.814 15.602243 0.011624 0.067748 -0.241899
2004-04-14 06:16:53 51°13.676 2°55.805 15.602243 0.011624 0.067748 -0.241899
2004-04-14 06:16:59 51°13.675 2°55.793 15.619575 0.011624 0.067749 -0.208189
2004-04-14 06:17:04 51°13.675 2°55.783 15.608969 0.011624 0.067749 -0.241899
2004-04-14 06:17:09 51°13.674 2°55.774 15.670252 0.011624 0.067751 -0.208189
2004-04-14 06:17:14 51°13.674 2°55.767 15.636213 0.011624 0.067752 -0.241899
2004-04-14 06:17:19 51°13.673 2°55.761 15.59931 0.011624 0.067752 -0.241899
2004-04-14 06:17:23 51°13.673 2°55.758 15.59931 0.011624 0.067752 -0.241899
2004-04-14 06:17:29 51°13.673 2°55.754 15.690839 0.011624 0.067753 -0.241899
2004-04-14 06:17:33 51°13.673 2°55.753 15.694586 0.011624 0.067753 -0.208189
2004-04-14 06:17:39 51°13.673 2°55.752 15.718696 0.011624 0.067753 -0.208189
2004-04-14 06:17:43 51°13.674 2°55.752 15.756049 0.011624 0.067754 -0.241899
2004-04-14 06:17:49 51°13.675 2°55.754 15.72498 0.011624 0.067755 -0.275608
2004-04-14 06:17:53 51°13.676 2°55.755 15.72498 0.011624 0.067755 -0.275608
2004-04-14 06:17:57 51°13.678 2°55.757 15.788395 0.011624 0.067757 -0.208189
2004-04-14 06:18:04 51°13.682 2°55.76 15.801208 0.011624 0.067758 -0.241899
2004-04-14 06:18:09 51°13.685 2°55.762 15.82124 0.011624 0.067759 -0.275608
2004-04-14 06:18:13 51°13.688 2°55.763 14.186655 0.011624 0.067877 -0.208189
2004-04-14 06:18:19 51°13.693 2°55.765 12.317441 0.011624 0.067865 3.19646
2004-04-14 06:18:23 51°13.696 2°55.765 12.317441 0.011624 0.067865 3.19646
2004-04-14 06:18:28 51°13.701 2°55.765 11.103223 3.60176 26.573393 21.972597
2004-04-14 06:18:33 51°13.706 2°55.763 10.790628 3.74077 28.66276 13.477828
2004-04-14 06:18:39 51°13.711 2°55.761 10.464478 3.785265 30.195121 12.028324
2004-04-14 06:18:43 51°13.715 2°55.758 10.352383 3.527003 28.928815 18.028597
2004-04-14 06:18:49 51°13.721 2°55.753 10.24402 3.357836 28.352105 23.186136
2004-04-14 06:18:53 51°13.725 2°55.749 10.24402 3.357836 28.352105 23.186136
2004-04-14 06:18:59 51°13.731 2°55.743 10.221962 3.268005 28.133809 26.927879
2004-04-14 06:19:03 51°13.735 2°55.738 10.166221 3.20356 27.878174 28.309965
2004-04-14 06:19:09 51°13.742 2°55.731 10.096666 3.142701 27.496739 29.489794
2004-04-14 06:19:13 51°13.747 2°55.726 10.125461 3.111222 27.365698 29.995435
2004-04-14 06:19:19 51°13.754 2°55.718 10.099616 3.087639 27.210768 29.961725
2004-04-14 06:19:23 51°13.76 2°55.712 10.099616 3.087639 27.210768 29.961725
2004-04-14 06:19:28 51°13.766 2°55.704 10.042833 3.043318 26.849579 30.26511
2004-04-14 06:19:33 51°13.773 2°55.696 10.02863 3.035739 26.843989 29.759469
2004-04-14 06:19:39 51°13.782 2°55.686 10.019347 3.034161 26.87205 30.534785
2004-04-14 06:19:44 51°13.789 2°55.677 9.985954 3.007107 26.636095 30.2314
2004-04-14 06:19:49 51°13.797 2°55.668 9.974976 2.97637 26.351078 29.995435
2004-04-14 06:19:53 51°13.803 2°55.661 9.974976 2.97637 26.351078 29.995435
2004-04-14 06:19:59 51°13.813 2°55.651 9.985814 2.944793 26.061439 29.624631
2004-04-14 06:20:03 51°13.82 2°55.644 9.96531 2.921532 25.851232 29.321247
2004-04-14 06:20:09 51°13.83 2°55.634 9.973334 2.911113 25.765677 29.725759
2004-04-14 06:20:13 51°13.837 2°55.628 9.995289 2.916691 25.83623 30.029144
2004-04-14 06:20:19 51°13.848 2°55.618 9.879284 2.909534 25.782452 30.366238
2004-04-14 06:20:23 51°13.855 2°55.612 9.879284 2.909534 25.782452 30.366238
2004-04-14 06:20:29 51°13.866 2°55.603 9.923203 2.914797 25.840206 30.467366
2004-04-14 06:20:33 51°13.874 2°55.598 9.876136 2.927217 25.969152 31.579777
2004-04-14 06:20:39 51°13.885 2°55.589 9.876042 2.952056 26.206413 33.197828
2004-04-14 06:20:43 51°13.893 2°55.583 9.859264 2.966161 26.375765 34.040563
2004-04-14 06:20:48 51°13.902 2°55.575 9.86528 2.982477 26.551295 34.849589
2004-04-14 06:20:53 51°13.912 2°55.568 9.86528 2.982477 26.551295 34.849589
2004-04-14 06:20:59 51°13.924 2°55.56 9.820522 3.002162 26.767484 35.692324
2004-04-14 06:21:04 51°13.934 2°55.553 9.800296 3.015531 26.90871 35.860871
2004-04-14 06:21:09 51°13.944 2°55.545 9.846008 3.0229 26.993396 36.130546
2004-04-14 06:21:13 51°13.952 2°55.54 9.805141 3.027426 27.045901 35.961999
2004-04-14 06:21:19 51°13.964 2°55.531 9.807776 3.042165 27.208382 35.726033
2004-04-14 06:21:23 51°13.972 2°55.526 9.807776 3.042165 27.208382 35.726033
2004-04-14 06:21:28 51°13.982 2°55.519 9.840366 3.044691 27.240058 35.557486
2004-04-14 06:21:33 51°13.992 2°55.511 9.827623 3.070063 27.494542 34.849589
2004-04-14 06:21:39 51°14.004 2°55.503 9.794509 3.065747 27.464184 34.074272
2004-04-14 06:21:43 51°14.013 2°55.497 9.822403 3.069327 27.5064 32.119127
2004-04-14 06:21:48 51°14.023 2°55.49 9.804153 3.074064 27.548964 31.141554
2004-04-14 06:21:53 51°14.033 2°55.483 9.804153 3.074064 27.548964 31.141554
2004-04-14 06:21:59 51°14.046 2°55.474 9.822685 3.071643 27.524996 29.69205
2004-04-14 06:22:03 51°14.055 2°55.468 9.797943 3.051745 27.339208 28.242546
2004-04-14 06:22:09 51°14.067 2°55.459 9.821745 3.076486 27.58161 27.46723
2004-04-14 06:22:13 51°14.076 2°55.453 9.814549 3.064905 27.467576 25.579503
2004-04-14 06:22:19 51°14.089 2°55.443 9.805188 3.070274 27.522582 24.939024
2004-04-14 06:22:23 51°14.098 2°55.437 9.805188 3.070274 27.522582 24.939024
2004-04-14 06:22:28 51°14.11 2°55.429 9.807728 3.066695 27.492088 23.826614
2004-04-14 06:22:33 51°14.121 2°55.42 9.78971 3.058378 27.409141 23.186136
2004-04-14 06:22:39 51°14.135 2°55.409 9.801989 3.060062 27.425196 22.174853
2004-04-14 06:22:43 51°14.145 2°55.402 9.801001 3.060694 27.436382 21.905178
2004-04-14 06:22:48 51°14.157 2°55.392 9.775357 3.051535 27.35065 21.669212
2004-04-14 06:22:53 51°14.169 2°55.381 9.775357 3.051535 27.35065 21.669212
2004-04-14 06:22:59 51°14.183 2°55.367 9.785381 3.056483 27.400243 21.197281
2004-04-14 06:23:03 51°14.192 2°55.358 9.786557 3.049008 27.323187 20.590512
2004-04-14 06:23:08 51°14.203 2°55.345 9.798132 3.051851 27.354391 20.624221
2004-04-14 06:23:13 51°14.214 2°55.331 9.792721 3.059747 27.441194 20.961315
2004-04-14 06:23:19 51°14.228 2°55.314 9.867724 3.064589 27.493495 20.388255
2004-04-14 06:23:23 51°14.236 2°55.302 9.867724 3.064589 27.493495 20.388255
2004-04-14 06:23:28 51°14.247 2°55.287 9.817465 3.064484 27.49307 19.916324
2004-04-14 06:23:33 51°14.258 2°55.271 9.817136 3.063115 27.476418 19.612939
2004-04-14 06:23:39 51°14.271 2°55.251 9.822968 3.059852 27.442855 19.511811
2004-04-14 06:23:44 51°14.281 2°55.235 9.817136 3.055535 27.383473 19.107298
2004-04-14 06:23:49 51°14.291 2°55.217 9.791733 3.04785 27.298838 19.00617
2004-04-14 06:23:53 51°14.299 2°55.202 9.791733 3.04785 27.298838 19.00617
2004-04-14 06:23:59 51°14.31 2°55.179 9.793286 3.040797 27.232763 18.3994
2004-04-14 06:24:04 51°14.319 2°55.159 9.798837 3.038165 27.209188 17.994888
2004-04-14 06:24:08 51°14.326 2°55.143 9.808434 3.039428 27.224127 18.331982
2004-04-14 06:24:13 51°14.335 2°55.122 9.789851 3.041007 27.246482 17.556665
2004-04-14 06:24:18 51°14.344 2°55.101 9.779922 3.040902 27.256474 17.657794
2004-04-14 06:24:23 51°14.354 2°55.08 9.779922 3.040902 27.256474 17.657794
2004-04-14 06:24:29 51°14.366 2°55.056 9.801001 3.040692 27.25807 17.522956
2004-04-14 06:24:33 51°14.376 2°55.041 9.789145 3.042587 27.27744 17.590375
2004-04-14 06:24:39 51°14.392 2°55.02 9.794274 3.04006 27.257952 17.489247
2004-04-14 06:24:43 51°14.403 2°55.007 9.756388 3.037113 27.231225 17.792631
2004-04-14 06:24:48 51°14.418 2°54.991 9.756011 3.038481 27.239254 17.421828
2004-04-14 06:24:53 51°14.433 2°54.975 9.756011 3.038481 27.239254 17.421828
2004-04-14 06:24:58 51°14.45 2°54.96 9.668812 3.041639 27.26254 17.725212
2004-04-14 06:25:04 51°14.469 2°54.944 9.641607 3.05164 27.362768 17.522956
2004-04-14 06:25:09 51°14.486 2°54.929 9.568042 3.067011 27.526779 18.163435
2004-04-14 06:25:13 51°14.499 2°54.917 9.550382 3.083014 27.701057 18.871332
2004-04-14 06:25:19 51°14.518 2°54.898 9.504178 3.106387 27.970985 19.680358
2004-04-14 06:25:23 51°14.531 2°54.885 9.504178 3.106387 27.970985 19.680358
2004-04-14 06:25:29 51°14.549 2°54.865 9.494253 3.134079 28.273477 20.590512
2004-04-14 06:25:33 51°14.562 2°54.852 9.476289 3.174512 28.72378 20.893896
2004-04-14 06:25:39 51°14.581 2°54.831 9.481537 3.204418 29.052185 20.287127
2004-04-14 06:25:43 51°14.593 2°54.818 9.467967 3.237275 29.415333 19.57923
2004-04-14 06:25:48 51°14.609 2°54.8 9.474398 3.262971 29.696157 19.039879
2004-04-14 06:25:53 51°14.625 2°54.783 9.474398 3.262971 29.696157 19.039879
2004-04-14 06:25:58 51°14.64 2°54.766 9.479599 3.284983 29.933703 18.028597
2004-04-14 06:26:03 51°14.656 2°54.749 9.487163 3.298569 30.079061 17.388118
2004-04-14 06:26:08 51°14.672 2°54.732 9.503139 3.310049 30.203979 16.71393
2004-04-14 06:26:13 51°14.688 2°54.715 9.491842 3.318475 30.293308 16.444255
2004-04-14 06:26:19 51°14.707 2°54.695 9.497845 3.324057 30.349086 15.668939
2004-04-14 06:26:23 51°14.72 2°54.681 9.497845 3.324057 30.349086 15.668939
2004-04-14 06:26:29 51°14.739 2°54.661 9.484421 3.326901 30.375093 15.163298
2004-04-14 06:26:33 51°14.751 2°54.648 9.474114 3.330061 30.402913 14.421691
2004-04-14 06:26:39 51°14.771 2°54.627 9.452928 3.33459 30.448739 14.084597
2004-04-14 06:26:43 51°14.784 2°54.614 9.431357 3.337012 30.469789 13.578956
2004-04-14 06:26:49 51°14.803 2°54.594 9.447489 3.339645 30.498517 12.533965
2004-04-14 06:26:53 51°14.815 2°54.58 9.447489 3.339645 30.498517 12.533965
2004-04-14 06:26:59 51°14.834 2°54.56 9.407933 3.340067 30.507639 12.264289
2004-04-14 06:27:03 51°14.847 2°54.546 9.391602 3.341015 30.530431 11.927195
2004-04-14 06:27:09 51°14.866 2°54.526 9.385826 3.339962 30.531577 11.724939
2004-04-14 06:27:13 51°14.879 2°54.513 9.356134 3.33775 30.518203 11.08446
2004-04-14 06:27:19 51°14.898 2°54.492 9.345759 3.337329 30.528536 11.11817
2004-04-14 06:27:23 51°14.91 2°54.479 9.345759 3.337329 30.528536 11.11817
2004-04-14 06:27:29 51°14.929 2°54.458 9.340406 3.336276 30.535256 11.320426
2004-04-14 06:27:33 51°14.942 2°54.444 9.314626 3.333854 30.52391 10.747366
2004-04-14 06:27:39 51°14.961 2°54.424 9.317896 3.333327 30.526227 10.882204
2004-04-14 06:27:43 51°14.973 2°54.41 9.31055 3.332169 30.529797 10.949623
2004-04-14 06:27:49 51°14.991 2°54.389 9.298888 3.331221 30.532024 10.882204
2004-04-14 06:27:53 51°15.004 2°54.376 9.298888 3.331221 30.532024 10.882204
2004-04-14 06:27:58 51°15.019 2°54.359 9.30453 3.3308 30.538907 11.11817
2004-04-14 06:28:04 51°15.039 2°54.339 9.294858 3.330694 30.548309 10.814785
2004-04-14 06:28:08 51°15.051 2°54.325 9.308938 3.331748 30.566701 10.983332
2004-04-14 06:28:13 51°15.067 2°54.308 9.306758 3.333223 30.590089 11.050751
2004-04-14 06:28:18 51°15.082 2°54.291 9.304008 3.335013 30.613904 10.949623
2004-04-14 06:28:23 51°15.098 2°54.275 9.304008 3.335013 30.613904 10.949623
2004-04-14 06:28:28 51°15.114 2°54.258 9.318323 3.337752 30.645271 10.747366
2004-04-14 06:28:33 51°15.13 2°54.241 9.320598 3.340701 30.671775 11.050751
2004-04-14 06:28:39 51°15.149 2°54.221 9.323678 3.343439 30.698239 11.387845
2004-04-14 06:28:43 51°15.162 2°54.208 9.33145 3.347021 30.733984 11.286717
2004-04-14 06:28:49 51°15.182 2°54.188 9.323062 3.350496 30.76655 11.893486
2004-04-14 06:28:53 51°15.195 2°54.176 9.323062 3.350496 30.76655 11.893486
2004-04-14 06:28:59 51°15.214 2°54.156 9.334009 3.353446 30.792345 11.960905
2004-04-14 06:29:03 51°15.228 2°54.144 9.324484 3.356289 30.815656 12.23058
2004-04-14 06:29:09 51°15.247 2°54.125 9.328181 3.358396 30.834278 12.23058
2004-04-14 06:29:13 51°15.261 2°54.113 9.321167 3.360397 30.853237 12.399127
2004-04-14 06:29:19 51°15.28 2°54.094 9.317423 3.361556 30.865031 12.533965
2004-04-14 06:29:23 51°15.294 2°54.081 9.317423 3.361556 30.865031 12.533965
2004-04-14 06:29:28 51°15.31 2°54.065 9.321593 3.362083 30.870392 11.994614
2004-04-14 06:29:33 51°15.326 2°54.049 9.31292 3.362188 30.872171 12.23058
2004-04-14 06:29:39 51°15.346 2°54.03 9.311924 3.362715 30.881063 11.927195
2004-04-14 06:29:44 51°15.363 2°54.014 9.310313 3.363241 30.890664 11.724939
2004-04-14 06:29:48 51°15.376 2°54.001 9.306758 3.363347 30.89103 11.960905
2004-04-14 06:29:53 51°15.393 2°53.986 9.306758 3.363347 30.89103 11.960905
2004-04-14 06:29:59 51°15.412 2°53.967 9.302681 3.363768 30.898854 11.185589
2004-04-14 06:30:03 51°15.426 2°53.954 9.301306 3.364611 30.910264 11.11817
2004-04-14 06:30:08 51°15.442 2°53.938 9.29775 3.365137 30.917043 11.69123
2004-04-14 06:30:13 51°15.458 2°53.923 9.297323 3.365453 30.9238 11.11817
2004-04-14 06:30:19 51°15.478 2°53.903 9.293009 3.36598 30.931288 11.151879
2004-04-14 06:30:24 51°15.495 2°53.888 9.293009 3.36598 30.931288 11.151879
2004-04-14 06:30:28 51°15.508 2°53.875 9.287129 3.366191 30.937683 10.612529
2004-04-14 06:30:33 51°15.524 2°53.859 9.283004 3.366191 30.939807 10.5114
2004-04-14 06:30:39 51°15.544 2°53.84 9.284189 3.36598 30.940493 10.612529
2004-04-14 06:30:43 51°15.557 2°53.828 9.278309 3.366086 30.940859 10.5114
2004-04-14 06:30:49 51°15.577 2°53.809 9.275795 3.366612 30.949769 10.073178
2004-04-14 06:30:53 51°15.59 2°53.796 9.275795 3.366612 30.949769 10.073178
2004-04-14 06:30:59 51°15.61 2°53.778 9.27589 3.367244 30.960463 9.702375
2004-04-14 06:31:03 51°15.623 2°53.765 9.276602 3.367666 30.966177 9.634956
2004-04-14 06:31:08 51°15.639 2°53.75 9.283051 3.367876 30.970452 9.500118
2004-04-14 06:31:13 51°15.656 2°53.734 9.277361 3.367876 30.976127 9.230443
2004-04-14 06:31:19 51°15.675 2°53.715 9.277645 3.368508 30.983992 9.028187
2004-04-14 06:31:23 51°15.688 2°53.702 9.277645 3.368508 30.983992 9.028187
2004-04-14 06:31:29 51°15.708 2°53.683 9.280064 3.36893 30.990419 9.39899
2004-04-14 06:31:33 51°15.721 2°53.671 9.278926 3.369772 30.995463 8.927059
2004-04-14 06:31:39 51°15.741 2°53.652 9.282577 3.370404 31.002619 9.028187
2004-04-14 06:31:44 51°15.757 2°53.636 9.2748 3.371458 31.013362 9.4327
2004-04-14 06:31:48 51°15.771 2°53.623 9.276649 3.372195 31.020883 9.500118
2004-04-14 06:31:53 51°15.787 2°53.607 9.276649 3.372195 31.020883 9.500118
2004-04-14 06:31:59 51°15.807 2°53.588 9.273472 3.372722 31.026255 9.702375
2004-04-14 06:32:04 51°15.823 2°53.572 9.268634 3.373459 31.033776 10.005759
2004-04-14 06:32:08 51°15.836 2°53.56 9.267827 3.374196 31.043431 10.039469
2004-04-14 06:32:13 51°15.852 2°53.544 9.264554 3.374302 31.046639 10.54511
2004-04-14 06:32:18 51°15.869 2°53.528 9.26057 3.374829 31.053435 10.612529
2004-04-14 06:32:24 51°15.889 2°53.509 9.26057 3.374829 31.053435 10.612529
2004-04-14 06:32:28 51°15.902 2°53.496 9.260143 3.375145 31.058794 11.050751
2004-04-14 06:32:33 51°15.918 2°53.48 9.254592 3.375145 31.060218 10.54511
2004-04-14 06:32:39 51°15.938 2°53.461 9.252742 3.374513 31.055192 10.612529
2004-04-14 06:32:43 51°15.952 2°53.449 9.25241 3.374723 31.060901 10.54511
2004-04-14 06:32:48 51°15.968 2°53.433 9.244012 3.374197 31.059085 10.342853
2004-04-14 06:32:53 51°15.985 2°53.418 9.244012 3.374197 31.059085 10.342853
2004-04-14 06:32:59 51°16.005 2°53.4 9.241924 3.373986 31.059071 10.410272
2004-04-14 06:33:04 51°16.022 2°53.386 9.228494 3.37367 31.057981 10.443982
2004-04-14 06:33:09 51°16.039 2°53.373 9.231816 3.373459 31.057967 10.275435
2004-04-14 06:33:13 51°16.053 2°53.362 9.219286 3.373249 31.060089 10.309144
2004-04-14 06:33:19 51°16.074 2°53.348 9.206089 3.37346 31.065089 10.5114
2004-04-14 06:33:23 51°16.088 2°53.338 9.206089 3.37346 31.065089 10.5114
2004-04-14 06:33:29 51°16.109 2°53.324 9.201483 3.373986 31.076168 10.814785
2004-04-14 06:33:33 51°16.123 2°53.314 9.181633 3.374618 31.085475 11.08446
2004-04-14 06:33:38 51°16.141 2°53.303 9.177311 3.375672 31.102656 11.354136
2004-04-14 06:33:43 51°16.159 2°53.291 9.160209 3.377147 31.126294 11.826067
2004-04-14 06:33:49 51°16.179 2°53.277 9.146335 3.378621 31.149232 12.736221
2004-04-14 06:33:53 51°16.193 2°53.267 9.146335 3.378621 31.149232 12.736221
2004-04-14 06:33:58 51°16.211 2°53.256 9.139729 3.380201 31.177555 13.882341
2004-04-14 06:34:03 51°16.228 2°53.244 9.130888 3.380939 31.192979 14.758785
2004-04-14 06:34:09 51°16.249 2°53.229 9.129177 3.381466 31.208407 15.230717
2004-04-14 06:34:13 51°16.263 2°53.22 9.120383 3.381466 31.219888 15.567811
2004-04-14 06:34:19 51°16.284 2°53.206 9.117435 3.381045 31.225627 16.006033
2004-04-14 06:34:24 51°16.302 2°53.194 9.117435 3.381045 31.225627 16.006033
2004-04-14 06:34:28 51°16.315 2°53.185 9.115533 3.380518 31.228134 16.815059
2004-04-14 06:34:33 51°16.333 2°53.173 9.114963 3.379675 31.224531 16.71393
2004-04-14 06:34:39 51°16.354 2°53.158 9.114345 3.379044 31.225241 16.612802
2004-04-14 06:34:43 51°16.368 2°53.149 9.117816 3.378096 31.221276 16.140871
2004-04-14 06:34:49 51°16.388 2°53.134 9.120002 3.377042 31.211917 15.63523
2004-04-14 06:34:53 51°16.402 2°53.125 9.120002 3.377042 31.211917 15.63523
2004-04-14 06:34:59 51°16.423 2°53.111 9.118576 3.376305 31.205079 15.298136
2004-04-14 06:35:04 51°16.44 2°53.1 9.120288 3.375884 31.201479 15.129589
2004-04-14 06:35:08 51°16.455 2°53.09 9.120573 3.375673 31.197883 14.725076
2004-04-14 06:35:13 51°16.472 2°53.078 9.117388 3.375462 31.195724 14.387982
2004-04-14 06:35:19 51°16.493 2°53.064 9.117245 3.375146 31.192486 14.050888
2004-04-14 06:35:24 51°16.51 2°53.052 9.117245 3.375146 31.192486 14.050888
2004-04-14 06:35:29 51°16.527 2°53.04 9.118957 3.375146 31.191049 14.017178
2004-04-14 06:35:33 51°16.541 2°53.03 9.118719 3.374936 31.189608 14.522819
2004-04-14 06:35:39 51°16.562 2°53.016 9.116389 3.375041 31.192842 14.118306
2004-04-14 06:35:43 51°16.576 2°53.006 9.115248 3.375252 31.195002 14.4554
2004-04-14 06:35:48 51°16.593 2°52.994 9.112205 3.375146 31.19464 14.657657
2004-04-14 06:35:53 51°16.611 2°52.982 9.112205 3.375146 31.19464 14.657657
2004-04-14 06:35:59 51°16.632 2°52.968 9.113061 3.375146 31.193922 14.286853
2004-04-14 06:36:04 51°16.649 2°52.956 9.114773 3.375357 31.198236 14.286853
2004-04-14 06:36:09 51°16.666 2°52.944 9.111445 3.375357 31.199673 14.522819
2004-04-14 06:36:13 51°16.68 2°52.935 9.113822 3.375568 31.201114 14.387982
2004-04-14 06:36:19 51°16.701 2°52.92 9.116152 3.375462 31.202909 14.4554
2004-04-14 06:36:23 51°16.715 2°52.911 9.116152 3.375462 31.202909 14.4554
2004-04-14 06:36:29 51°16.735 2°52.896 9.112491 3.375568 31.204707 14.286853
2004-04-14 06:36:33 51°16.749 2°52.887 9.115724 3.375884 31.207946 14.522819
2004-04-14 06:36:39 51°16.77 2°52.874 9.112633 3.375989 31.208307 14.623947
2004-04-14 06:36:44 51°16.788 2°52.863 9.117293 3.375989 31.208307 14.152016
2004-04-14 06:36:48 51°16.802 2°52.854 9.115866 3.376094 31.209387 14.320563
2004-04-14 06:36:53 51°16.819 2°52.844 9.115866 3.376094 31.209387 14.320563
2004-04-14 06:36:57 51°16.833 2°52.836 9.114488 3.3762 31.209748 14.017178
2004-04-14 06:37:04 51°16.858 2°52.821 9.112966 3.376094 31.210825 13.545247
2004-04-14 06:37:09 51°16.876 2°52.811 9.113346 3.375989 31.207589 13.680084
2004-04-14 06:37:13 51°16.89 2°52.803 9.11406 3.376094 31.20795 13.140734
2004-04-14 06:37:19 51°16.911 2°52.791 9.112205 3.375989 31.207589 12.871059
2004-04-14 06:37:23 51°16.926 2°52.784 9.112205 3.375989 31.207589 12.871059
2004-04-14 06:37:28 51°16.944 2°52.776 9.112443 3.375989 31.208307 13.410409
2004-04-14 06:37:33 51°16.962 2°52.769 9.110731 3.3762 31.211186 13.140734
2004-04-14 06:37:39 51°16.985 2°52.76 9.111968 3.3762 31.211186 12.972187
2004-04-14 06:37:43 51°17 2°52.754 9.110731 3.376305 31.212266 12.904768
2004-04-14 06:37:49 51°17.022 2°52.747 9.105834 3.37641 31.214064 13.039606
2004-04-14 06:37:53 51°17.037 2°52.741 9.105834 3.37641 31.214064 13.039606
2004-04-14 06:37:59 51°17.06 2°52.733 9.102553 3.376516 31.215863 13.3767
2004-04-14 06:38:03 51°17.075 2°52.727 9.100032 3.376726 31.218742 13.309281
2004-04-14 06:38:08 51°17.093 2°52.72 9.098178 3.377253 31.22558 13.578956
2004-04-14 06:38:13 51°17.112 2°52.713 9.094373 3.377674 31.232059 13.444118
2004-04-14 06:38:18 51°17.131 2°52.706 9.0958 3.377885 31.236378 14.118306
2004-04-14 06:38:23 51°17.15 2°52.7 9.0958 3.377885 31.236378 14.118306
2004-04-14 06:38:29 51°17.172 2°52.691 9.096703 3.378307 31.242858 14.522819
2004-04-14 06:38:33 51°17.187 2°52.686 9.097464 3.378623 31.248258 15.095879
2004-04-14 06:38:39 51°17.21 2°52.677 9.093422 3.379571 31.259423 15.197007
2004-04-14 06:38:43 51°17.225 2°52.673 9.098606 3.380097 31.266266 15.668939
2004-04-14 06:38:49 51°17.248 2°52.668 9.097322 3.380413 31.270228 16.073452
2004-04-14 06:38:53 51°17.263 2°52.665 9.097322 3.380413 31.270228 16.073452
2004-04-14 06:38:59 51°17.286 2°52.662 9.09366 3.380729 31.274191 16.444255
2004-04-14 06:39:04 51°17.306 2°52.659 9.093232 3.380835 31.275271 16.646512
2004-04-14 06:39:08 51°17.321 2°52.657 9.090806 3.381151 31.277793 16.579093
2004-04-14 06:39:13 51°17.34 2°52.654 9.094088 3.381361 31.279954 16.579093
2004-04-14 06:39:18 51°17.36 2°52.652 9.091377 3.381467 31.281035 16.309418
2004-04-14 06:39:24 51°17.383 2°52.648 9.091377 3.381467 31.281035 16.309418
2004-04-14 06:39:29 51°17.402 2°52.646 9.084242 3.381888 31.286799 16.241999
2004-04-14 06:39:33 51°17.418 2°52.644 9.083624 3.381572 31.28572 16.006033
2004-04-14 06:39:39 51°17.441 2°52.641 9.082387 3.381572 31.284999 15.837486
2004-04-14 06:39:43 51°17.457 2°52.638 9.080009 3.381572 31.287883 15.534101
2004-04-14 06:39:49 51°17.48 2°52.635 9.073158 3.381572 31.290047 15.534101
2004-04-14 06:39:53 51°17.495 2°52.632 9.073158 3.381572 31.290047 15.534101
2004-04-14 06:39:59 51°17.519 2°52.629 9.069875 3.381572 31.292933 15.264426
2004-04-14 06:40:03 51°17.534 2°52.627 9.067449 3.381783 31.297259 14.657657
2004-04-14 06:40:09 51°17.558 2°52.623 9.064784 3.381783 31.299424 14.387982
2004-04-14 06:40:13 51°17.573 2°52.621 9.065498 3.382099 31.304833 14.219435
2004-04-14 06:40:19 51°17.596 2°52.617 9.058456 3.38252 31.312046 13.949759
2004-04-14 06:40:23 51°17.612 2°52.615 9.058456 3.38252 31.312046 13.949759
2004-04-14 06:40:28 51°17.631 2°52.612 9.054887 3.382942 31.319984 14.219435
2004-04-14 06:40:33 51°17.65 2°52.609 9.052888 3.38389 31.33044 14.320563
2004-04-14 06:40:39 51°17.673 2°52.605 9.047129 3.384732 31.342708 14.219435
2004-04-14 06:40:43 51°17.689 2°52.603 9.041894 3.385364 31.352092 14.556529
2004-04-14 06:40:49 51°17.712 2°52.6 9.041894 3.38568 31.358955 14.792494
2004-04-14 06:40:53 51°17.728 2°52.597 9.041894 3.38568 31.358955 14.792494
2004-04-14 06:40:59 51°17.751 2°52.594 9.033421 3.386523 31.369784 14.219435
2004-04-14 06:41:03 51°17.767 2°52.591 9.027518 3.387155 31.380622 14.253144
2004-04-14 06:41:09 51°17.79 2°52.587 9.026946 3.387366 31.385684 14.185725
2004-04-14 06:41:13 51°17.805 2°52.585 9.021471 3.387893 31.393995 14.286853
2004-04-14 06:41:19 51°17.829 2°52.581 9.022043 3.388525 31.404115 14.4554
2004-04-14 06:41:23 51°17.844 2°52.579 9.022043 3.388525 31.404115 14.4554
2004-04-14 06:41:28 51°17.863 2°52.576 9.017805 3.389262 31.418223 14.118306
2004-04-14 06:41:33 51°17.883 2°52.573 9.015472 3.390105 31.429791 14.185725
2004-04-14 06:41:38 51°17.902 2°52.569 9.014472 3.390948 31.441361 14.253144
2004-04-14 06:41:44 51°17.925 2°52.565 9.013662 3.39179 31.452207 14.522819
2004-04-14 06:41:49 51°17.945 2°52.562 9.013853 3.392633 31.462329 15.095879
2004-04-14 06:41:53 51°17.96 2°52.559 9.013853 3.392633 31.462329 15.095879
2004-04-14 06:41:59 51°17.984 2°52.555 9.005709 3.393265 31.471011 14.859913
2004-04-14 06:42:04 51°18.003 2°52.552 9.005376 3.393897 31.479695 14.961042
2004-04-14 06:42:08 51°18.018 2°52.549 9.001899 3.394003 31.482233 14.48911
2004-04-14 06:42:13 51°18.038 2°52.546 8.998946 3.394319 31.48694 14.185725
2004-04-14 06:42:19 51°18.061 2°52.542 8.995565 3.394108 31.489866 14.623947
2004-04-14 06:42:24 51°18.081 2°52.538 8.995565 3.394108 31.489866 14.623947
2004-04-14 06:42:29 51°18.1 2°52.535 8.994898 3.393792 31.487341 14.253144
2004-04-14 06:42:33 51°18.116 2°52.532 8.993326 3.393687 31.48844 14.185725
2004-04-14 06:42:39 51°18.139 2°52.529 8.991087 3.393792 31.491708 14.320563
2004-04-14 06:42:43 51°18.154 2°52.526 8.99123 3.394003 31.497517 14.253144
2004-04-14 06:42:48 51°18.174 2°52.523 8.98942 3.393792 31.496805 14.084597
2004-04-14 06:42:53 51°18.193 2°52.519 8.98942 3.393792 31.496805 14.084597
2004-04-14 06:42:59 51°18.216 2°52.516 8.988753 3.394108 31.500786 14.152016
2004-04-14 06:43:03 51°18.232 2°52.514 8.988848 3.394529 31.508038 14.185725
2004-04-14 06:43:09 51°18.255 2°52.512 8.987371 3.395056 31.51346 13.949759
2004-04-14 06:43:13 51°18.271 2°52.51 8.985323 3.395583 31.52107 13.814922
2004-04-14 06:43:19 51°18.295 2°52.507 8.991421 3.395478 31.520714 13.781212
2004-04-14 06:43:23 51°18.31 2°52.505 8.991421 3.395478 31.520714 13.781212
2004-04-14 06:43:28 51°18.33 2°52.503 8.986085 3.395688 31.522884 14.017178
2004-04-14 06:43:33 51°18.349 2°52.5 8.982703 3.395478 31.522172 14.050888
2004-04-14 06:43:39 51°18.372 2°52.498 8.982131 3.395688 31.524342 13.781212
2004-04-14 06:43:43 51°18.388 2°52.496 8.983751 3.395583 31.523257 13.34299
2004-04-14 06:43:48 51°18.407 2°52.494 8.981702 3.395688 31.524342 13.241862
2004-04-14 06:43:53 51°18.426 2°52.491 8.981702 3.395688 31.524342 13.241862
2004-04-14 06:43:59 51°18.45 2°52.489 8.98275 3.395794 31.528343 13.140734
2004-04-14 06:44:03 51°18.466 2°52.487 8.978987 3.395372 31.524003 12.567674
2004-04-14 06:44:08 51°18.485 2°52.485 8.980273 3.395162 31.524021 12.736221
2004-04-14 06:44:13 51°18.504 2°52.482 8.979606 3.394951 31.521851 12.432836
2004-04-14 06:44:19 51°18.528 2°52.479 8.982036 3.394846 31.522954 11.994614
2004-04-14 06:44:23 51°18.543 2°52.478 8.982036 3.394846 31.522954 11.994614
2004-04-14 06:44:29 51°18.567 2°52.474 8.985466 3.394214 31.517173 11.758648
2004-04-14 06:44:33 51°18.582 2°52.473 8.984894 3.394003 31.515003 11.219298
2004-04-14 06:44:39 51°18.605 2°52.47 8.990277 3.394319 31.517529 11.387845
2004-04-14 06:44:43 51°18.621 2°52.468 8.986657 3.394319 31.5168 11.354136
2004-04-14 06:44:48 51°18.64 2°52.465 8.982607 3.394319 31.516071 10.848494
2004-04-14 06:44:53 51°18.66 2°52.463 8.982607 3.394319 31.516071 10.848494
2004-04-14 06:44:59 51°18.683 2°52.46 8.980988 3.393687 31.508833 10.713657
2004-04-14 06:45:03 51°18.698 2°52.458 8.983036 3.393055 31.500138 10.275435
2004-04-14 06:45:08 51°18.718 2°52.455 8.987181 3.392001 31.489291 10.241725
2004-04-14 06:45:13 51°18.737 2°52.453 8.977224 3.390948 31.480629 9.702375
2004-04-14 06:45:19 51°18.76 2°52.451 8.983656 3.389473 31.467627 9.230443
2004-04-14 06:45:23 51°18.776 2°52.449 8.983656 3.389473 31.467627 9.230443
2004-04-14 06:45:29 51°18.799 2°52.446 8.978748 3.388631 31.458222 9.061896
2004-04-14 06:45:33 51°18.815 2°52.444 8.973364 3.387893 31.448447 8.657383
2004-04-14 06:45:39 51°18.838 2°52.441 8.971315 3.386524 31.437258 8.320289
2004-04-14 06:45:43 51°18.854 2°52.439 8.969838 3.385576 31.428224 8.455127
2004-04-14 06:45:49 51°18.877 2°52.436 8.966312 3.384733 31.420275 7.814648
2004-04-14 06:45:53 51°18.892 2°52.434 8.966312 3.384733 31.420275 7.814648
2004-04-14 06:45:59 51°18.916 2°52.431 8.967742 3.383996 31.41559 7.646101
2004-04-14 06:46:03 51°18.931 2°52.429 8.96717 3.383575 31.412705 7.612392
2004-04-14 06:46:08 51°18.95 2°52.427 8.965359 3.382943 31.408378 7.578683
2004-04-14 06:46:13 51°18.969 2°52.425 8.963405 3.382732 31.407662 7.275298
2004-04-14 06:46:19 51°18.991 2°52.422 8.959783 3.382627 31.40803 7.241589
2004-04-14 06:46:23 51°19.006 2°52.421 8.959783 3.382627 31.40803 7.241589
2004-04-14 06:46:28 51°19.025 2°52.419 8.956304 3.382837 31.411654 7.410136
2004-04-14 06:46:33 51°19.046 2°52.416 8.951728 3.383153 31.415635 6.904494
2004-04-14 06:46:39 51°19.07 2°52.414 8.947629 3.383891 31.425411 6.803366
2004-04-14 06:46:43 51°19.086 2°52.413 8.939525 3.38368 31.424695 6.837076
2004-04-14 06:46:48 51°19.106 2°52.412 8.941623 3.383786 31.42869 7.14046
2004-04-14 06:46:53 51°19.126 2°52.412 8.941623 3.383786 31.42869 7.14046
2004-04-14 06:46:59 51°19.149 2°52.414 8.933661 3.383575 31.42943 6.870785
2004-04-14 06:47:03 51°19.165 2°52.415 8.929418 3.383575 31.431613 7.578683
2004-04-14 06:47:09 51°19.188 2°52.417 8.922742 3.383048 31.432736 6.971913
2004-04-14 06:47:13 51°19.204 2°52.419 8.916543 3.382732 31.433119 6.5674
2004-04-14 06:47:19 51°19.228 2°52.422 8.914921 3.382206 31.429875 6.971913
2004-04-14 06:47:23 51°19.244 2°52.424 8.914921 3.382206 31.429875 6.971913
2004-04-14 06:47:29 51°19.267 2°52.428 8.909532 3.381995 31.431344 6.702238
2004-04-14 06:47:33 51°19.283 2°52.43 8.903713 3.381995 31.435713 6.668529
2004-04-14 06:47:39 51°19.306 2°52.434 8.899801 3.382101 31.442627 6.60111
2004-04-14 06:47:44 51°19.326 2°52.438 8.895317 3.382522 31.452073 6.60111
2004-04-14 06:47:49 51°19.346 2°52.442 8.892502 3.382733 31.457162 6.398853
2004-04-14 06:47:53 51°19.361 2°52.445 8.892502 3.382733 31.457162 6.398853
2004-04-14 06:47:59 51°19.385 2°52.451 8.886348 3.383786 31.473863 6.499982
2004-04-14 06:48:04 51°19.404 2°52.457 8.890356 3.383997 31.478226 6.668529
2004-04-14 06:48:09 51°19.424 2°52.462 8.89255 3.384313 31.484406 6.5674
2004-04-14 06:48:13 51°19.439 2°52.467 8.893266 3.384629 31.491318 6.769657
2004-04-14 06:48:19 51°19.463 2°52.475 8.898466 3.384629 31.4957 6.803366
2004-04-14 06:48:23 51°19.478 2°52.48 8.898466 3.384629 31.4957 6.803366
2004-04-14 06:48:29 51°19.501 2°52.488 8.901662 3.385366 31.505503 6.702238
2004-04-14 06:48:33 51°19.517 2°52.493 8.906479 3.386525 31.515271 6.803366
2004-04-14 06:48:39 51°19.54 2°52.502 8.908101 3.387894 31.530137 7.477554
2004-04-14 06:48:43 51°19.555 2°52.509 8.907195 3.389264 31.540615 7.073042
2004-04-14 06:48:49 51°19.578 2°52.52 8.911821 3.39137 31.559435 8.151742
2004-04-14 06:48:53 51°19.593 2°52.528 8.911821 3.39137 31.559435 8.151742
2004-04-14 06:48:59 51°19.616 2°52.54 8.912441 3.393688 31.58116 7.848358
2004-04-14 06:49:04 51°19.635 2°52.551 8.913586 3.395584 31.598535 8.252871
2004-04-14 06:49:08 51°19.65 2°52.56 8.914587 3.396532 31.606123 8.758512
2004-04-14 06:49:13 51°19.668 2°52.571 8.91473 3.396637 31.606477 8.657383
2004-04-14 06:49:19 51°19.691 2°52.585 8.913729 3.396953 31.607541 8.657383
2004-04-14 06:49:23 51°19.706 2°52.594 8.913729 3.396953 31.607541 8.657383
2004-04-14 06:49:29 51°19.728 2°52.607 8.911678 3.39906 31.628554 8.893349
2004-04-14 06:49:33 51°19.743 2°52.616 8.908101 3.40064 31.642664 8.927059
2004-04-14 06:49:39 51°19.766 2°52.629 8.90543 3.401272 31.649188 9.668665
2004-04-14 06:49:43 51°19.781 2°52.638 8.902854 3.401693 31.655005 9.4327
2004-04-14 06:49:49 51°19.803 2°52.652 8.896605 3.401377 31.652477 9.702375
2004-04-14 06:49:53 51°19.818 2°52.661 8.896605 3.401377 31.652477 9.702375
2004-04-14 06:49:59 51°19.841 2°52.674 8.890356 3.40064 31.645598 9.634956
2004-04-14 06:50:04 51°19.86 2°52.685 8.89317 3.399903 31.640921 9.095606
2004-04-14 06:50:09 51°19.878 2°52.696 8.884821 3.398428 31.627896 9.129315
2004-04-14 06:50:13 51°19.893 2°52.705 8.878666 3.397164 31.617779 8.994477
2004-04-14 06:50:19 51°19.916 2°52.718 8.880288 3.395268 31.604067 8.927059
2004-04-14 06:50:24 51°19.935 2°52.729 8.880288 3.395268 31.604067 8.927059
2004-04-14 06:50:29 51°19.953 2°52.74 8.877998 3.393583 31.590328 8.387708
2004-04-14 06:50:33 51°19.969 2°52.749 8.878045 3.392951 31.586 8.219161
2004-04-14 06:50:39 51°19.991 2°52.762 8.872892 3.392845 31.587844 7.915777
2004-04-14 06:50:43 51°20.006 2°52.771 8.873082 3.392635 31.587867 7.949486
2004-04-14 06:50:49 51°20.029 2°52.784 8.873751 3.392951 31.59333 7.848358
2004-04-14 06:50:53 51°20.044 2°52.793 8.873751 3.392951 31.59333 7.848358
2004-04-14 06:50:59 51°20.067 2°52.806 8.873082 3.392951 31.594796 7.882067
2004-04-14 06:51:04 51°20.085 2°52.816 8.873226 3.393161 31.599906 7.983195
2004-04-14 06:51:09 51°20.104 2°52.827 8.871317 3.393477 31.603904 7.612392
2004-04-14 06:51:13 51°20.119 2°52.836 8.864874 3.394215 31.611522 8.758512
2004-04-14 06:51:19 51°20.142 2°52.849 8.85948 3.395163 31.622784 7.848358
2004-04-14 06:51:24 51°20.161 2°52.86 8.85948 3.395163 31.622784 7.848358
2004-04-14 06:51:28 51°20.176 2°52.868 8.85781 3.395479 31.626049 7.679811
2004-04-14 06:51:33 51°20.195 2°52.879 8.847212 3.395795 31.630783 7.74723
2004-04-14 06:51:39 51°20.218 2°52.892 8.839812 3.39569 31.630428 7.74723
2004-04-14 06:51:44 51°20.237 2°52.902 8.830166 3.394847 31.627594 7.241589
2004-04-14 06:51:49 51°20.256 2°52.913 8.82754 3.393794 31.618911 7.443845
2004-04-14 06:51:53 51°20.271 2°52.923 8.82754 3.393794 31.618911 7.443845
2004-04-14 06:51:59 51°20.293 2°52.937 8.817176 3.392951 31.614606 6.837076
2004-04-14 06:52:04 51°20.312 2°52.949 8.810584 3.391687 31.609617 7.005623
2004-04-14 06:52:08 51°20.326 2°52.959 8.804326 3.390634 31.606069 6.769657
2004-04-14 06:52:13 51°20.345 2°52.971 8.794675 3.390107 31.60503 6.196597
2004-04-14 06:52:19 51°20.367 2°52.986 8.794436 3.389686 31.606549 6.331435
2004-04-14 06:52:24 51°20.386 2°52.999 8.794436 3.389686 31.606549 6.331435
2004-04-14 06:52:28 51°20.4 2°53.009 8.792334 3.389159 31.607714 6.061759
2004-04-14 06:52:33 51°20.419 2°53.021 8.792812 3.388949 31.612884 5.994341
2004-04-14 06:52:39 51°20.441 2°53.036 8.79716 3.388527 31.614406 6.432563
2004-04-14 06:52:43 51°20.456 2°53.046 8.798975 3.388422 31.616993 5.960631
2004-04-14 06:52:48 51°20.474 2°53.059 8.802463 3.389054 31.626478 5.926922
2004-04-14 06:52:53 51°20.493 2°53.073 8.802463 3.389054 31.626478 5.926922
2004-04-14 06:52:59 51°20.514 2°53.089 8.809629 3.389265 31.630866 6.432563
2004-04-14 06:53:03 51°20.529 2°53.1 8.815265 3.390002 31.637027 5.724665
2004-04-14 06:53:09 51°20.551 2°53.116 8.825677 3.390529 31.641743 5.724665
2004-04-14 06:53:13 51°20.565 2°53.126 8.839477 3.391582 31.649703 5.690956
2004-04-14 06:53:19 51°20.587 2°53.142 8.849885 3.392214 31.651827 5.623537
2004-04-14 06:53:23 51°20.602 2°53.153 8.849885 3.392214 31.651827 5.623537
2004-04-14 06:53:28 51°20.62 2°53.167 8.852034 3.393689 31.663409 6.061759
2004-04-14 06:53:33 51°20.638 2°53.18 8.851747 3.394847 31.668773 5.690956
2004-04-14 06:53:39 51°20.66 2°53.197 8.847403 3.396638 31.67773 6.162888
2004-04-14 06:53:43 51°20.674 2°53.207 8.845445 3.398113 31.68415 5.690956
2004-04-14 06:53:48 51°20.692 2°53.221 8.847403 3.399061 31.688802 5.758375
2004-04-14 06:53:53 51°20.711 2°53.234 8.847403 3.399061 31.688802 5.758375
2004-04-14 06:53:59 51°20.733 2°53.25 8.853323 3.399903 31.694573 5.690956
2004-04-14 06:54:04 51°20.751 2°53.263 8.853036 3.400114 31.697488 5.589828
2004-04-14 06:54:08 51°20.765 2°53.274 8.853179 3.40043 31.701493 5.421281
2004-04-14 06:54:13 51°20.784 2°53.287 8.854039 3.400957 31.70694 5.4887
2004-04-14 06:54:19 51°20.805 2°53.303 8.848071 3.401273 31.707999 5.690956
2004-04-14 06:54:23 51°20.82 2°53.314 8.848071 3.401273 31.707999 5.690956
2004-04-14 06:54:28 51°20.838 2°53.327 8.853179 3.402115 31.716714 5.724665
2004-04-14 06:54:33 51°20.856 2°53.34 8.856807 3.402747 31.721777 5.657247
2004-04-14 06:54:39 51°20.878 2°53.356 8.861485 3.402747 31.72104 5.657247
2004-04-14 06:54:44 51°20.897 2°53.369 8.867451 3.403379 31.729051 5.825794
2004-04-14 06:54:49 51°20.915 2°53.382 8.867785 3.403801 31.733409 5.623537
2004-04-14 06:54:53 51°20.929 2°53.392 8.867785 3.403801 31.733409 5.623537
2004-04-14 06:54:59 51°20.951 2°53.408 8.862917 3.405276 31.745713 5.690956
2004-04-14 06:55:04 51°20.969 2°53.421 8.860196 3.406329 31.753659 5.690956
2004-04-14 06:55:08 51°20.984 2°53.432 8.862774 3.406961 31.756508 5.792084
2004-04-14 06:55:13 51°21.002 2°53.445 8.866401 3.408646 31.770249 5.758375
2004-04-14 06:55:19 51°21.024 2°53.461 8.875135 3.409489 31.78044 5.657247
2004-04-14 06:55:24 51°21.042 2°53.474 8.875135 3.409489 31.78044 5.657247
2004-04-14 06:55:29 51°21.06 2°53.487 8.884439 3.410226 31.790281 5.690956
2004-04-14 06:55:33 51°21.075 2°53.498 8.889163 3.410437 31.791721 5.960631
2004-04-14 06:55:39 51°21.096 2°53.514 8.892502 3.411385 31.800789 6.095469
2004-04-14 06:55:43 51°21.111 2°53.525 8.895413 3.412333 31.805425 5.926922
2004-04-14 06:55:49 51°21.133 2°53.541 8.89775 3.413703 31.813679 6.095469
2004-04-14 06:55:53 51°21.148 2°53.551 8.89775 3.413703 31.813679 6.095469
2004-04-14 06:55:59 51°21.17 2°53.566 8.898656 3.414334 31.814306 5.926922
2004-04-14 06:56:03 51°21.184 2°53.578 8.895747 3.414966 31.817149 6.095469
2004-04-14 06:56:09 51°21.206 2°53.593 8.894697 3.415598 31.819991 5.994341
2004-04-14 06:56:13 51°21.221 2°53.604 8.895603 3.415809 31.819216 5.960631
2004-04-14 06:56:19 51°21.243 2°53.62 8.89775 3.41602 31.820656 5.994341
2004-04-14 06:56:24 51°21.261 2°53.633 8.89775 3.41602 31.820656 5.994341
2004-04-14 06:56:29 51°21.279 2°53.647 8.899849 3.41623 31.822833 5.994341
2004-04-14 06:56:33 51°21.294 2°53.657 8.897512 3.416125 31.822483 5.724665
2004-04-14 06:56:39 51°21.315 2°53.674 8.897798 3.41623 31.822833 5.758375
2004-04-14 06:56:44 51°21.334 2°53.687 8.89775 3.41623 31.822095 6.061759
2004-04-14 06:56:49 51°21.352 2°53.7 8.89589 3.415914 31.820305 5.657247
2004-04-14 06:56:53 51°21.367 2°53.711 8.89589 3.415914 31.820305 5.657247
2004-04-14 06:56:58 51°21.385 2°53.725 8.889163 3.416652 31.825712 5.690956
2004-04-14 06:57:04 51°21.407 2°53.742 8.889831 3.417073 31.830805 5.724665
2004-04-14 06:57:09 51°21.425 2°53.755 8.883581 3.417073 31.829329 5.960631
2004-04-14 06:57:13 51°21.439 2°53.766 8.882483 3.416863 31.829366 5.926922
2004-04-14 06:57:19 51°21.461 2°53.783 8.894268 3.417073 31.833021 5.623537
2004-04-14 06:57:23 51°21.476 2°53.793 8.894268 3.417073 31.833021 5.623537
2004-04-14 06:57:28 51°21.494 2°53.807 8.903427 3.416968 31.834148 5.926922
2004-04-14 06:57:33 51°21.512 2°53.82 8.91721 3.416652 31.833096 5.724665
2004-04-14 06:57:39 51°21.534 2°53.836 8.926557 3.416863 31.83823 5.724665
2004-04-14 06:57:43 51°21.548 2°53.847 8.933804 3.417179 31.83928 6.129178
2004-04-14 06:57:48 51°21.566 2°53.86 8.933947 3.417705 31.835861 5.893212
2004-04-14 06:57:53 51°21.585 2°53.874 8.933947 3.417705 31.835861 5.893212
2004-04-14 06:57:59 51°21.607 2°53.89 8.934949 3.420023 31.853166 5.690956
2004-04-14 06:58:03 51°21.621 2°53.901 8.933041 3.421813 31.863546 5.926922
2004-04-14 06:58:09 51°21.643 2°53.917 8.92813 3.423077 31.867742 5.960631
2004-04-14 06:58:14 51°21.661 2°53.931 8.918641 3.424236 31.876758 6.60111
2004-04-14 06:58:19 51°21.68 2°53.944 8.91101 3.424657 31.878894 5.792084
2004-04-14 06:58:23 51°21.694 2°53.955 8.91101 3.424657 31.878894 5.792084
2004-04-14 06:58:28 51°21.712 2°53.969 8.908387 3.425184 31.883596 6.297725
2004-04-14 06:58:33 51°21.73 2°53.982 8.904428 3.424657 31.879633 5.859503
2004-04-14 06:58:39 51°21.752 2°53.999 8.902902 3.424341 31.880802 5.994341
2004-04-14 06:58:44 51°21.77 2°54.012 8.906193 3.424026 31.884927 5.859503
2004-04-14 06:58:49 51°21.789 2°54.026 8.906527 3.423815 31.885707 6.398853
2004-04-14 06:58:53 51°21.803 2°54.036 8.906527 3.423815 31.885707 6.398853
2004-04-14 06:58:58 51°21.821 2°54.05 8.907529 3.423499 31.886878 6.162888
2004-04-14 06:59:04 51°21.843 2°54.066 8.905907 3.423183 31.88583 6.162888
2004-04-14 06:59:09 51°21.861 2°54.08 8.906813 3.423499 31.889096 6.735947
2004-04-14 06:59:13 51°21.876 2°54.091 8.90605 3.424342 31.897807 6.5674
2004-04-14 06:59:18 51°21.894 2°54.104 8.904762 3.42392 31.893452 6.499982
2004-04-14 06:59:23 51°21.912 2°54.117 8.904762 3.42392 31.893452 6.499982
2004-04-14 06:59:28 51°21.93 2°54.131 8.902425 3.424342 31.897807 6.668529
2004-04-14 06:59:33 51°21.949 2°54.144 8.902377 3.424447 31.898896 6.499982
2004-04-14 06:59:38 51°21.967 2°54.158 8.898895 3.424552 31.899985 6.803366
2004-04-14 06:59:44 51°21.989 2°54.174 8.895556 3.424342 31.898547 6.60111
2004-04-14 06:59:49 51°22.006 2°54.188 8.889545 3.424552 31.901465 6.533691
2004-04-14 06:59:53 51°22.021 2°54.198 8.889545 3.424552 31.901465 6.533691
2004-04-14 06:59:59 51°22.043 2°54.215 8.888447 3.424342 31.900767 6.837076
2004-04-14 07:00:03 51°22.058 2°54.226 8.885728 3.424658 31.904774 6.735947
2004-04-14 07:00:09 51°22.079 2°54.242 8.884439 3.424658 31.907734 6.634819
2004-04-14 07:00:13 51°22.094 2°54.253 8.882531 3.42392 31.905291 6.668529
2004-04-14 07:00:18 51°22.112 2°54.267 8.879859 3.423604 31.903504 6.735947
2004-04-14 07:00:23 51°22.131 2°54.28 8.879859 3.423604 31.903504 6.735947
2004-04-14 07:00:29 51°22.153 2°54.296 8.880574 3.423815 31.907163 6.769657
2004-04-14 07:00:33 51°22.167 2°54.307 8.876948 3.423394 31.905027 6.735947
2004-04-14 07:00:38 51°22.186 2°54.32 8.880336 3.423815 31.911606 6.769657
2004-04-14 07:00:43 51°22.204 2°54.333 8.881529 3.423921 31.914918 6.938204
2004-04-14 07:00:48 51°22.222 2°54.346 8.882913 3.424237 31.918187 7.039332
2004-04-14 07:00:53 51°22.24 2°54.36 8.882913 3.424237 31.918187 7.039332
2004-04-14 07:00:59 51°22.262 2°54.375 8.886586 3.424342 31.921499 7.005623
2004-04-14 07:01:03 51°22.277 2°54.386 8.891119 3.424763 31.925117 7.780939
2004-04-14 07:01:08 51°22.295 2°54.4 8.891835 3.425395 31.931655 7.410136
2004-04-14 07:01:13 51°22.313 2°54.413 8.890117 3.426975 31.946519 7.376426
2004-04-14 07:01:19 51°22.335 2°54.429 8.886109 3.428766 31.963563 8.050614
2004-04-14 07:01:23 51°22.349 2°54.44 8.886109 3.428766 31.963563 8.050614
2004-04-14 07:01:29 51°22.371 2°54.456 8.884249 3.430662 31.980212 8.623674
2004-04-14 07:01:33 51°22.386 2°54.467 8.88129 3.431294 31.984524 8.28658
2004-04-14 07:01:39 51°22.408 2°54.483 8.878761 3.431611 31.987793 8.151742
2004-04-14 07:01:43 51°22.422 2°54.494 8.88005 3.431084 31.983829 8.118033
2004-04-14 07:01:48 51°22.44 2°54.507 8.878141 3.430241 31.977337 8.016905
2004-04-14 07:01:53 51°22.458 2°54.521 8.878141 3.430241 31.977337 8.016905
2004-04-14 07:01:59 51°22.48 2°54.537 8.87585 3.429925 31.977778 8.320289
2004-04-14 07:02:03 51°22.494 2°54.548 8.875135 3.429082 31.970542 7.915777
2004-04-14 07:02:09 51°22.516 2°54.564 8.87752 3.429188 31.97089 8.252871
2004-04-14 07:02:13 51°22.53 2°54.576 8.87585 3.429504 31.974902 7.814648
2004-04-14 07:02:19 51°22.552 2°54.591 8.879429 3.430136 31.982185 8.118033
2004-04-14 07:02:23 51°22.567 2°54.603 8.879429 3.430136 31.982185 8.118033
2004-04-14 07:02:28 51°22.585 2°54.616 8.881815 3.431084 31.993481 8.084324
2004-04-14 07:02:33 51°22.603 2°54.63 8.882531 3.433191 32.016028 8.455127
2004-04-14 07:02:39 51°22.625 2°54.646 8.884439 3.435508 32.040016 8.927059
2004-04-14 07:02:43 51°22.639 2°54.657 8.883199 3.436983 32.05305 9.601247
2004-04-14 07:02:49 51°22.661 2°54.673 8.880145 3.437931 32.061375 10.208016
2004-04-14 07:02:53 51°22.676 2°54.683 8.880145 3.437931 32.061375 10.208016
2004-04-14 07:02:59 51°22.698 2°54.7 8.88568 3.437405 32.054435 10.477691
2004-04-14 07:03:03 51°22.712 2°54.711 8.878141 3.437088 32.051164 10.309144
2004-04-14 07:03:09 51°22.734 2°54.727 8.875516 3.436456 32.045366 10.140597
2004-04-14 07:03:13 51°22.749 2°54.738 8.875755 3.435719 32.038478 9.803503
2004-04-14 07:03:19 51°22.771 2°54.754 8.86559 3.435087 32.031193 9.264153
2004-04-14 07:03:24 51°22.789 2°54.768 8.86559 3.435087 32.031193 9.264153
2004-04-14 07:03:29 51°22.807 2°54.781 8.866353 3.434982 32.030846 9.331571
2004-04-14 07:03:33 51°22.822 2°54.791 8.866592 3.434771 32.030896 9.163024
2004-04-14 07:03:38 51°22.84 2°54.805 8.867928 3.433928 32.024404 9.028187
2004-04-14 07:03:43 51°22.859 2°54.819 8.868596 3.433823 32.027775 8.927059
2004-04-14 07:03:49 51°22.88 2°54.834 8.86726 3.434455 32.036549 8.893349
2004-04-14 07:03:53 51°22.895 2°54.845 8.86726 3.434455 32.036549 8.893349
2004-04-14 07:03:59 51°22.917 2°54.86 8.870505 3.435719 32.048893 9.365281
2004-04-14 07:04:03 51°22.931 2°54.871 8.871126 3.436246 32.055835 9.634956
2004-04-14 07:04:09 51°22.953 2°54.887 8.87084 3.436141 32.053255 9.163024
2004-04-14 07:04:13 51°22.967 2°54.898 8.86979 3.436457 32.057272 9.163024
2004-04-14 07:04:19 51°22.989 2°54.914 8.868501 3.436878 32.061635 9.365281
2004-04-14 07:04:24 51°23.007 2°54.928 8.868501 3.436878 32.061635 9.365281
2004-04-14 07:04:29 51°23.025 2°54.941 8.871794 3.437721 32.069616 9.736084
2004-04-14 07:04:33 51°23.04 2°54.951 8.878618 3.438247 32.07358 9.702375
2004-04-14 07:04:38 51°23.058 2°54.964 8.87585 3.438353 32.073926 9.533828
2004-04-14 07:04:43 51°23.077 2°54.978 8.876614 3.438563 32.077597 9.331571
2004-04-14 07:04:49 51°23.099 2°54.993 8.874753 3.438985 32.080471 9.702375
2004-04-14 07:04:53 51°23.113 2°55.004 8.874753 3.438985 32.080471 9.702375
2004-04-14 07:04:59 51°23.136 2°55.02 8.875421 3.440038 32.090633 9.769794
2004-04-14 07:05:03 51°23.15 2°55.03 8.874514 3.44067 32.095687 9.736084
2004-04-14 07:05:08 51°23.169 2°55.044 8.873464 3.441197 32.09965 9.870922
2004-04-14 07:05:13 51°23.187 2°55.057 8.870028 3.441513 32.103668 10.241725
2004-04-14 07:05:18 51°23.205 2°55.07 8.864731 3.441302 32.102232 10.342853
2004-04-14 07:05:23 51°23.224 2°55.083 8.864731 3.441302 32.102232 10.342853
2004-04-14 07:05:28 51°23.242 2°55.096 8.863919 3.440354 32.090925 9.837212
2004-04-14 07:05:33 51°23.26 2°55.109 8.86096 3.439722 32.086616 9.668665
2004-04-14 07:05:39 51°23.283 2°55.125 8.852511 3.439406 32.084089 9.668665
2004-04-14 07:05:43 51°23.297 2°55.135 8.852463 3.438142 32.073979 9.129315
2004-04-14 07:05:48 51°23.316 2°55.149 8.846925 3.43751 32.069669 9.39899
2004-04-14 07:05:53 51°23.334 2°55.162 8.846925 3.43751 32.069669 9.39899
2004-04-14 07:05:59 51°23.356 2°55.178 8.841674 3.436878 32.065358 8.927059
2004-04-14 07:06:03 51°23.371 2°55.188 8.840241 3.435614 32.056735 8.623674
2004-04-14 07:06:09 51°23.393 2°55.205 8.835801 3.434244 32.046275 8.724802
2004-04-14 07:06:13 51°23.408 2°55.215 8.830882 3.433296 32.039433 8.353999
2004-04-14 07:06:18 51°23.426 2°55.228 8.827635 3.432243 32.032244 8.185452
2004-04-14 07:06:23 51°23.444 2°55.241 8.827635 3.432243 32.032244 8.185452
2004-04-14 07:06:29 51°23.466 2°55.257 8.830882 3.431295 32.0254 8.084324
2004-04-14 07:06:33 51°23.481 2°55.268 8.831455 3.430031 32.016771 8.219161
2004-04-14 07:06:39 51°23.503 2°55.283 8.834703 3.428978 32.00809 7.814648
2004-04-14 07:06:43 51°23.518 2°55.294 8.836708 3.428978 32.011066 7.814648
2004-04-14 07:06:49 51°23.54 2°55.31 8.833986 3.429294 32.01434 8.050614
2004-04-14 07:06:53 51°23.555 2°55.321 8.833986 3.429294 32.01434 8.050614
2004-04-14 07:06:59 51°23.576 2°55.337 8.837854 3.430136 32.023816 7.71352
2004-04-14 07:07:03 51°23.591 2°55.347 8.839239 3.431506 32.036517 7.74723
2004-04-14 07:07:09 51°23.613 2°55.364 8.84091 3.432875 32.049217 7.949486
2004-04-14 07:07:13 51°23.628 2°55.374 8.842294 3.43435 32.065244 8.118033
2004-04-14 07:07:19 51°23.65 2°55.39 8.841865 3.435403 32.075415 8.151742
2004-04-14 07:07:23 51°23.665 2°55.4 8.841865 3.435403 32.075415 8.151742
2004-04-14 07:07:29 51°23.687 2°55.416 8.843918 3.437405 32.093919 8.522546
2004-04-14 07:07:33 51°23.701 2°55.427 8.84492 3.441408 32.13466 8.994477
2004-04-14 07:07:38 51°23.72 2°55.44 8.844347 3.445938 32.179371 10.54511
2004-04-14 07:07:43 51°23.738 2°55.453 8.844634 3.451627 32.238347 12.297999
2004-04-14 07:07:49 51°23.76 2°55.469 8.843822 3.455419 32.276923 14.185725
2004-04-14 07:07:53 51°23.775 2°55.48 8.843822 3.455419 32.276923 14.185725
2004-04-14 07:07:59 51°23.797 2°55.496 8.843583 3.459422 32.316939 15.466683
2004-04-14 07:08:03 51°23.812 2°55.506 8.845064 3.462477 32.347123 16.579093
2004-04-14 07:08:09 51°23.834 2°55.522 8.843536 3.464374 32.367545 17.556665
2004-04-14 07:08:13 51°23.849 2°55.534 8.843011 3.466165 32.386124 18.230853
2004-04-14 07:08:19 51°23.87 2°55.551 8.841435 3.467639 32.401426 18.669076
2004-04-14 07:08:23 51°23.885 2°55.562 8.841435 3.467639 32.401426 18.669076
2004-04-14 07:08:29 51°23.907 2°55.579 8.840814 3.469009 32.416389 19.00617
2004-04-14 07:08:33 51°23.922 2°55.59 8.84048 3.469746 32.424041 19.242136
2004-04-14 07:08:39 51°23.944 2°55.607 8.83814 3.470589 32.434294 19.916324
2004-04-14 07:08:43 51°23.958 2°55.618 8.836994 3.471116 32.439006 19.882614
2004-04-14 07:08:48 51°23.977 2°55.632 8.838427 3.471854 32.448167 20.759059
2004-04-14 07:08:53 51°23.995 2°55.646 8.838427 3.471854 32.448167 20.759059
2004-04-14 07:08:58 51°24.014 2°55.659 8.839191 3.472064 32.451108 21.096153
2004-04-14 07:09:03 51°24.032 2°55.673 8.838475 3.472696 32.458423 20.792768
2004-04-14 07:09:09 51°24.054 2°55.69 8.836899 3.472591 32.458839 21.500665
2004-04-14 07:09:13 51°24.069 2°55.701 8.839048 3.473118 32.464306 21.702922
2004-04-14 07:09:17 51°24.084 2°55.712 8.838427 3.473012 32.463213 21.770341
2004-04-14 07:09:23 51°24.106 2°55.729 8.838427 3.473012 32.463213 21.770341
2004-04-14 07:09:28 51°24.125 2°55.743 8.835896 3.473012 32.463213 21.197281
2004-04-14 07:09:33 51°24.143 2°55.757 8.838427 3.473223 32.4654 21.466956
2004-04-14 07:09:37 51°24.158 2°55.768 8.837567 3.473539 32.46868 21.500665
2004-04-14 07:09:43 51°24.18 2°55.785 8.837758 3.473434 32.466832 21.601794
2004-04-14 07:09:48 51°24.199 2°55.798 8.838188 3.47375 32.470867 21.635503
2004-04-14 07:09:53 51°24.217 2°55.813 8.838188 3.47375 32.470867 21.635503
2004-04-14 07:09:59 51°24.239 2°55.83 8.836899 3.47375 32.470867 21.466956
2004-04-14 07:10:03 51°24.254 2°55.841 8.834798 3.473855 32.47347 20.556802
2004-04-14 07:10:09 51°24.277 2°55.858 8.834225 3.474171 32.475241 21.163571
2004-04-14 07:10:13 51°24.292 2°55.869 8.836613 3.473961 32.473054 20.893896
2004-04-14 07:10:19 51°24.314 2°55.886 8.835849 3.474487 32.478522 21.096153
2004-04-14 07:10:23 51°24.329 2°55.897 8.835849 3.474487 32.478522 21.096153
2004-04-14 07:10:28 51°24.347 2°55.911 8.836565 3.474487 32.479277 21.23099
2004-04-14 07:10:33 51°24.365 2°55.926 8.838952 3.474909 32.484406 21.23099
2004-04-14 07:10:39 51°24.387 2°55.945 8.839955 3.474909 32.484406 20.860187
2004-04-14 07:10:43 51°24.401 2°55.958 8.841435 3.475014 32.486255 21.062443
2004-04-14 07:10:49 51°24.422 2°55.978 8.843249 3.475014 32.4855 20.624221
2004-04-14 07:10:53 51°24.437 2°55.991 8.843249 3.475014 32.4855 20.624221
2004-04-14 07:10:59 51°24.458 2°56.011 8.84153 3.475119 32.484328 20.354546
2004-04-14 07:11:03 51°24.472 2°56.024 8.843583 3.47533 32.485005 20.388255
2004-04-14 07:11:08 51°24.49 2°56.041 8.843583 3.475119 32.482818 20.084871
2004-04-14 07:11:13 51°24.507 2°56.058 8.844204 3.475225 32.482401 19.747777
2004-04-14 07:11:19 51°24.528 2°56.078 8.845064 3.47533 32.483495 19.57923
2004-04-14 07:11:23 51°24.542 2°56.091 8.845064 3.47533 32.483495 19.57923
2004-04-14 07:11:29 51°24.564 2°56.112 8.848214 3.475225 32.481646 19.107298
2004-04-14 07:11:33 51°24.578 2°56.125 8.849122 3.475225 32.480891 18.837623
2004-04-14 07:11:37 51°24.592 2°56.138 8.852272 3.475014 32.478705 18.938751
2004-04-14 07:11:43 51°24.613 2°56.158 8.847976 3.474803 32.475763 18.197144
2004-04-14 07:11:48 51°24.63 2°56.175 8.847212 3.474487 32.470974 17.792631
2004-04-14 07:11:53 51°24.648 2°56.192 8.847212 3.474487 32.470974 17.792631
2004-04-14 07:11:59 51°24.669 2°56.212 8.850029 3.474171 32.466939 17.489247
2004-04-14 07:12:04 51°24.686 2°56.229 8.847451 3.47396 32.463244 16.983606
2004-04-14 07:12:08 51°24.7 2°56.243 8.847833 3.473644 32.460718 16.646512
2004-04-14 07:12:13 51°24.718 2°56.26 8.84683 3.47375 32.462566 16.477965
2004-04-14 07:12:19 51°24.739 2°56.28 8.845159 3.473855 32.464414 16.107161
2004-04-14 07:12:23 51°24.753 2°56.293 8.845159 3.473855 32.464414 16.107161
2004-04-14 07:12:28 51°24.771 2°56.31 8.847116 3.47375 32.461812 16.140871
2004-04-14 07:12:33 51°24.789 2°56.327 8.849217 3.473434 32.458532 15.770067
2004-04-14 07:12:39 51°24.81 2°56.348 8.849265 3.473855 32.462905 15.668939
2004-04-14 07:12:43 51°24.824 2°56.361 8.851843 3.47396 32.464753 15.129589
2004-04-14 07:12:48 51°24.842 2°56.378 8.851461 3.473855 32.463659 15.06217
2004-04-14 07:12:53 51°24.859 2°56.395 8.851461 3.473855 32.463659 15.06217
2004-04-14 07:12:59 51°24.881 2°56.415 8.85423 3.47396 32.464753 14.859913
2004-04-14 07:13:03 51°24.895 2°56.428 8.85738 3.473855 32.462905 14.556529
2004-04-14 07:13:08 51°24.913 2°56.445 8.858191 3.474066 32.464337 13.848631
2004-04-14 07:13:13 51°24.93 2°56.462 8.857714 3.473644 32.458456 13.410409
2004-04-14 07:13:19 51°24.952 2°56.482 8.858717 3.473855 32.459133 13.005896
2004-04-14 07:13:24 51°24.969 2°56.499 8.858717 3.473855 32.459133 13.005896
2004-04-14 07:13:28 51°24.984 2°56.512 8.861199 3.473434 32.454007 12.163161
2004-04-14 07:13:33 51°25.001 2°56.529 8.859337 3.473539 32.452084 12.702512
2004-04-14 07:13:38 51°25.019 2°56.545 8.8538 3.473644 32.453931 11.960905
2004-04-14 07:13:43 51°25.037 2°56.562 8.849408 3.473855 32.455363 12.264289
2004-04-14 07:13:48 51°25.055 2°56.579 8.842199 3.473855 32.453855 11.994614
2004-04-14 07:13:53 51°25.072 2°56.595 8.842199 3.473855 32.453855 11.994614
2004-04-14 07:13:59 51°25.094 2°56.615 8.833795 3.472064 32.435276 11.792358
2004-04-14 07:14:03 51°25.108 2°56.628 8.827492 3.468166 32.39635 10.983332
2004-04-14 07:14:09 51°25.129 2°56.649 8.822716 3.462477 32.341862 10.140597
2004-04-14 07:14:13 51°25.143 2°56.662 8.820662 3.457421 32.293928 9.4327
2004-04-14 07:14:19 51°25.164 2°56.682 8.822573 3.451837 32.242031 8.28658
2004-04-14 07:14:24 51°25.182 2°56.699 8.822573 3.451837 32.242031 8.28658
2004-04-14 07:14:29 51°25.2 2°56.716 8.826775 3.44794 32.206108 7.679811
2004-04-14 07:14:33 51°25.214 2°56.729 8.832076 3.444674 32.177485 6.837076
2004-04-14 07:14:39 51°25.235 2°56.749 8.833365 3.442251 32.156849 6.702238
2004-04-14 07:14:43 51°25.249 2°56.762 8.834082 3.441514 32.148455 6.702238
2004-04-14 07:14:49 51°25.27 2°56.783 8.826393 3.441514 32.147707 6.129178
2004-04-14 07:14:53 51°25.284 2°56.796 8.826393 3.441514 32.147707 6.129178
2004-04-14 07:14:59 51°25.306 2°56.816 8.825677 3.442672 32.156732 5.859503
2004-04-14 07:15:03 51°25.32 2°56.829 8.825773 3.442988 32.157766 6.432563
2004-04-14 07:15:07 51°25.334 2°56.842 8.824435 3.443304 32.159547 5.994341
2004-04-14 07:15:13 51°25.355 2°56.862 8.825438 3.442778 32.157824 6.331435
2004-04-14 07:15:17 51°25.369 2°56.875 8.822812 3.442567 32.156387 5.825794
2004-04-14 07:15:23 51°25.39 2°56.895 8.822812 3.442567 32.156387 5.825794
2004-04-14 07:15:29 51°25.411 2°56.915 8.820806 3.443199 32.164437 5.926922
2004-04-14 07:15:33 51°25.425 2°56.929 8.817462 3.443831 32.171739 6.230306
2004-04-14 07:15:39 51°25.446 2°56.949 8.814979 3.444569 32.179386 6.297725
2004-04-14 07:15:44 51°25.464 2°56.966 8.813832 3.44499 32.185252 6.499982
2004-04-14 07:15:48 51°25.478 2°56.979 8.818943 3.444253 32.178353 5.792084
2004-04-14 07:15:53 51°25.495 2°56.996 8.818943 3.444253 32.178353 5.792084
2004-04-14 07:15:59 51°25.516 2°57.017 8.818609 3.443515 32.17295 5.792084
2004-04-14 07:16:03 51°25.53 2°57.03 8.816412 3.443094 32.170825 5.960631
2004-04-14 07:16:08 51°25.548 2°57.047 8.819516 3.443094 32.17307 5.859503
2004-04-14 07:16:13 51°25.565 2°57.064 8.823767 3.443726 32.178877 5.825794
2004-04-14 07:16:19 51°25.586 2°57.084 8.821665 3.444779 32.189055 5.758375
2004-04-14 07:16:24 51°25.604 2°57.101 8.821665 3.444779 32.189055 5.758375
2004-04-14 07:16:29 51°25.622 2°57.117 8.821809 3.445727 32.198141 6.230306
2004-04-14 07:16:33 51°25.636 2°57.131 8.824483 3.446781 32.209069 6.432563
2004-04-14 07:16:39 51°25.657 2°57.151 8.822621 3.447413 32.213378 6.297725
2004-04-14 07:16:44 51°25.675 2°57.168 8.816555 3.44794 32.218092 6.297725
2004-04-14 07:16:48 51°25.689 2°57.181 8.813355 3.448256 32.22137 6.702238
2004-04-14 07:16:53 51°25.707 2°57.198 8.813355 3.448256 32.22137 6.702238
2004-04-14 07:16:59 51°25.728 2°57.218 8.80681 3.448361 32.221714 6.735947
2004-04-14 07:17:04 51°25.746 2°57.234 8.800791 3.448045 32.218435 6.634819
2004-04-14 07:17:09 51°25.763 2°57.251 8.794341 3.447518 32.21447 6.533691
2004-04-14 07:17:13 51°25.777 2°57.264 8.789133 3.446886 32.21166 6.668529
2004-04-14 07:17:19 51°25.798 2°57.284 8.785549 3.44636 32.21144 6.60111
2004-04-14 07:17:23 51°25.812 2°57.298 8.785549 3.44636 32.21144 6.60111
2004-04-14 07:17:28 51°25.83 2°57.314 8.774987 3.445833 32.209722 6.702238
2004-04-14 07:17:33 51°25.847 2°57.331 8.76992 3.445622 32.212033 6.634819
2004-04-14 07:17:39 51°25.868 2°57.351 8.766383 3.445201 32.212158 6.533691
2004-04-14 07:17:43 51°25.882 2°57.365 8.762416 3.444885 32.213376 6.196597
2004-04-14 07:17:49 51°25.903 2°57.385 8.755484 3.444464 32.215001 6.466272
2004-04-14 07:17:53 51°25.918 2°57.398 8.755484 3.444464 32.215001 6.466272
2004-04-14 07:17:59 51°25.939 2°57.418 8.751276 3.444358 32.219909 6.365144
2004-04-14 07:18:03 51°25.953 2°57.431 8.749699 3.444991 32.230225 6.735947
2004-04-14 07:18:09 51°25.974 2°57.452 8.745539 3.445412 32.240609 6.769657
2004-04-14 07:18:13 51°25.988 2°57.465 8.741761 3.446044 32.251682 6.837076
2004-04-14 07:18:19 51°26.01 2°57.484 8.740805 3.446571 32.260161 7.17417
2004-04-14 07:18:23 51°26.024 2°57.497 8.740805 3.446571 32.260161 7.17417
2004-04-14 07:18:29 51°26.045 2°57.517 8.736262 3.446466 32.265081 7.005623
2004-04-14 07:18:33 51°26.059 2°57.53 8.734731 3.447308 32.276096 7.443845
2004-04-14 07:18:38 51°26.076 2°57.547 8.733249 3.447835 32.284581 6.870785
2004-04-14 07:18:44 51°26.097 2°57.567 8.72794 3.448467 32.291904 7.578683
2004-04-14 07:18:49 51°26.115 2°57.584 8.72397 3.448889 32.30005 7.309007
2004-04-14 07:18:53 51°26.129 2°57.597 8.72397 3.448889 32.30005 7.309007
2004-04-14 07:18:59 51°26.15 2°57.617 8.728227 3.44931 32.305937 7.544973
2004-04-14 07:19:04 51°26.167 2°57.634 8.730762 3.449416 32.310046 7.443845
2004-04-14 07:19:09 51°26.185 2°57.651 8.731001 3.449521 32.311895 7.443845
2004-04-14 07:19:13 51°26.199 2°57.664 8.730044 3.449942 32.320799 7.544973
2004-04-14 07:19:19 51°26.22 2°57.684 8.732053 3.450574 32.328881 7.544973
2004-04-14 07:19:24 51°26.237 2°57.701 8.732053 3.450574 32.328881 7.544973
2004-04-14 07:19:29 51°26.254 2°57.718 8.732053 3.451839 32.340521 7.814648
2004-04-14 07:19:33 51°26.268 2°57.731 8.732675 3.453629 32.358395 7.780939
2004-04-14 07:19:39 51°26.288 2°57.752 8.733918 3.454262 32.36497 8.252871
2004-04-14 07:19:43 51°26.302 2°57.765 8.73277 3.456052 32.3836 8.28658
2004-04-14 07:19:49 51°26.323 2°57.785 8.732197 3.457422 32.397092 7.983195
2004-04-14 07:19:53 51°26.336 2°57.798 8.732197 3.457422 32.397092 7.983195
2004-04-14 07:19:59 51°26.357 2°57.818 8.733249 3.459318 32.415308 8.455127
2004-04-14 07:20:03 51°26.37 2°57.832 8.73277 3.461531 32.439082 8.556255
2004-04-14 07:20:09 51°26.391 2°57.852 8.730475 3.463743 32.461346 8.185452
2004-04-14 07:20:13 51°26.404 2°57.865 8.730331 3.465323 32.478547 8.219161
2004-04-14 07:20:17 51°26.418 2°57.879 8.723061 3.466903 32.494235 8.82593
2004-04-14 07:20:24 51°26.441 2°57.903 8.723061 3.466903 32.494235 8.82593
2004-04-14 07:20:29 51°26.459 2°57.919 8.716603 3.467641 32.501152 8.589965
2004-04-14 07:20:33 51°26.472 2°57.933 8.716843 3.468378 32.510344 8.85964
2004-04-14 07:20:39 51°26.493 2°57.953 8.708566 3.468905 32.516585 8.893349
2004-04-14 07:20:43 51°26.506 2°57.967 8.700767 3.469326 32.524005 8.994477
2004-04-14 07:20:49 51°26.527 2°57.986 8.692728 3.469642 32.532607 9.095606
2004-04-14 07:20:53 51°26.54 2°58 8.692728 3.469642 32.532607 9.095606
2004-04-14 07:20:59 51°26.561 2°58.02 8.693924 3.469643 32.534885 8.960768
2004-04-14 07:21:03 51°26.574 2°58.033 8.677987 3.469432 32.538005 9.028187
2004-04-14 07:21:09 51°26.594 2°58.053 8.672434 3.469853 32.546951 9.634956
2004-04-14 07:21:13 51°26.608 2°58.067 8.665157 3.470696 32.562569 8.960768
2004-04-14 07:21:19 51°26.628 2°58.087 8.651368 3.471012 32.569664 9.061896
2004-04-14 07:21:24 51°26.645 2°58.103 8.651368 3.471012 32.569664 9.061896
2004-04-14 07:21:28 51°26.659 2°58.117 8.634845 3.472066 32.58825 8.927059
2004-04-14 07:21:33 51°26.676 2°58.133 8.627755 3.473541 32.610478 8.792221
2004-04-14 07:21:39 51°26.696 2°58.153 8.615635 3.475332 32.63525 8.893349
2004-04-14 07:21:44 51°26.713 2°58.17 8.618605 3.477544 32.66901 9.163024
2004-04-14 07:21:48 51°26.727 2°58.183 8.628091 3.480284 32.708292 9.500118
2004-04-14 07:21:53 51°26.744 2°58.2 8.628091 3.480284 32.708292 9.500118
2004-04-14 07:21:59 51°26.764 2°58.219 8.634941 3.481653 32.733304 9.567537
2004-04-14 07:22:04 51°26.781 2°58.236 8.646579 3.482391 32.750964 9.634956
2004-04-14 07:22:09 51°26.798 2°58.253 8.656204 3.484182 32.773507 9.904631
2004-04-14 07:22:13 51°26.811 2°58.267 8.664343 3.48671 32.797622 10.679947
2004-04-14 07:22:18 51°26.828 2°58.284 8.672434 3.49103 32.838145 11.792358
2004-04-14 07:22:23 51°26.844 2°58.302 8.672434 3.49103 32.838145 11.792358
2004-04-14 07:22:29 51°26.864 2°58.324 8.672961 3.49419 32.865019 12.904768
2004-04-14 07:22:33 51°26.876 2°58.339 8.677939 3.497562 32.892551 14.522819
2004-04-14 07:22:39 51°26.896 2°58.362 8.679662 3.501038 32.919636 16.815059
2004-04-14 07:22:43 51°26.908 2°58.379 8.682677 3.502618 32.929216 17.556665
2004-04-14 07:22:48 51°26.924 2°58.398 8.680715 3.504515 32.944402 18.466819
2004-04-14 07:22:53 51°26.94 2°58.418 8.680715 3.504515 32.944402 18.466819
2004-04-14 07:22:59 51°26.959 2°58.441 8.682773 3.505779 32.953755 19.882614
2004-04-14 07:23:04 51°26.975 2°58.461 8.679758 3.506938 32.962777 19.983742
2004-04-14 07:23:09 51°26.991 2°58.48 8.683491 3.507675 32.968938 20.523093
2004-04-14 07:23:13 51°27.003 2°58.496 8.683395 3.508729 32.979169 21.298409
2004-04-14 07:23:19 51°27.022 2°58.52 8.685549 3.509045 32.980929 21.601794
2004-04-14 07:23:23 51°27.035 2°58.535 8.685549 3.509045 32.980929 21.601794
2004-04-14 07:23:29 51°27.054 2°58.559 8.685118 3.509888 32.98973 22.613076
2004-04-14 07:23:33 51°27.067 2°58.575 8.687272 3.509782 32.987089 22.815332
2004-04-14 07:23:39 51°27.086 2°58.598 8.687894 3.509677 32.985218 23.320973
2004-04-14 07:23:43 51°27.099 2°58.614 8.686219 3.509782 32.985547 23.051298
2004-04-14 07:23:49 51°27.118 2°58.637 8.687559 3.509572 32.983347 23.186136
2004-04-14 07:23:53 51°27.131 2°58.653 8.687559 3.509572 32.983347 23.186136
2004-04-14 07:23:59 51°27.15 2°58.676 8.688038 3.509256 32.980047 22.410819
2004-04-14 07:24:04 51°27.165 2°58.696 8.683635 3.508623 32.971906 22.073725
2004-04-14 07:24:09 51°27.181 2°58.716 8.682869 3.507886 32.965746 21.163571
2004-04-14 07:24:13 51°27.194 2°58.731 8.679806 3.507254 32.956837 20.590512
2004-04-14 07:24:18 51°27.21 2°58.751 8.679758 3.506832 32.953207 20.354546
2004-04-14 07:24:23 51°27.225 2°58.771 8.679758 3.506832 32.953207 20.354546
2004-04-14 07:24:28 51°27.24 2°58.792 8.678035 3.506727 32.951337 19.815195
2004-04-14 07:24:33 51°27.255 2°58.813 8.674636 3.506306 32.950017 20.556802
2004-04-14 07:24:39 51°27.273 2°58.839 8.673008 3.505884 32.947926 19.478101
2004-04-14 07:24:43 51°27.285 2°58.856 8.67478 3.50599 32.949796 19.57923
2004-04-14 07:24:48 51°27.299 2°58.878 8.673726 3.506306 32.953096 19.916324
2004-04-14 07:24:53 51°27.314 2°58.9 8.673726 3.506306 32.953096 19.916324
2004-04-14 07:24:58 51°27.329 2°58.922 8.668987 3.507254 32.966078 19.747777
2004-04-14 07:25:04 51°27.347 2°58.948 8.665445 3.508308 32.978621 20.792768
2004-04-14 07:25:09 51°27.361 2°58.97 8.665875 3.50894 32.986765 21.669212
2004-04-14 07:25:13 51°27.373 2°58.987 8.661231 3.509466 32.992267 21.905178
2004-04-14 07:25:19 51°27.39 2°59.014 8.660034 3.510204 33.001513 21.905178
2004-04-14 07:25:24 51°27.406 2°59.035 8.660034 3.510204 33.001513 21.905178
2004-04-14 07:25:29 51°27.42 2°59.057 8.6608 3.510731 33.009329 22.95017
2004-04-14 07:25:33 51°27.432 2°59.074 8.664439 3.510942 33.013846 24.163708
2004-04-14 07:25:38 51°27.447 2°59.096 8.659891 3.511363 33.021336 25.17499
2004-04-14 07:25:43 51°27.462 2°59.118 8.66104 3.511574 33.02431 25.343537
2004-04-14 07:25:49 51°27.48 2°59.144 8.661519 3.51189 33.029156 25.680631
2004-04-14 07:25:53 51°27.492 2°59.161 8.661519 3.51189 33.029156 25.680631
2004-04-14 07:25:59 51°27.51 2°59.187 8.662668 3.511784 33.027283 26.017725
2004-04-14 07:26:04 51°27.525 2°59.209 8.665492 3.511679 33.026955 25.916597
2004-04-14 07:26:09 51°27.539 2°59.23 8.666833 3.511574 33.025854 25.849178
2004-04-14 07:26:13 51°27.551 2°59.248 8.666354 3.511363 33.023652 25.815469
2004-04-14 07:26:19 51°27.569 2°59.274 8.663577 3.510731 33.016275 24.905315
2004-04-14 07:26:23 51°27.581 2°59.292 8.663577 3.510731 33.016275 24.905315
2004-04-14 07:26:29 51°27.599 2°59.318 8.663386 3.51052 33.012529 23.860324
2004-04-14 07:26:33 51°27.611 2°59.335 8.662428 3.510625 33.012858 23.388392
2004-04-14 07:26:39 51°27.628 2°59.361 8.663386 3.510099 33.006583 23.725486
2004-04-14 07:26:43 51°27.64 2°59.378 8.661519 3.509783 33.003281 23.388392
2004-04-14 07:26:48 51°27.655 2°59.399 8.663865 3.50915 32.996677 22.511947
2004-04-14 07:26:53 51°27.67 2°59.421 8.663865 3.50915 32.996677 22.511947
2004-04-14 07:26:57 51°27.682 2°59.438 8.663242 3.50894 32.996018 23.186136
2004-04-14 07:27:03 51°27.7 2°59.464 8.662716 3.508624 32.993487 22.849042
2004-04-14 07:27:08 51°27.715 2°59.486 8.663434 3.508308 32.990185 23.152426
2004-04-14 07:27:13 51°27.73 2°59.507 8.6642 3.507992 32.986883 23.422101
2004-04-14 07:27:17 51°27.741 2°59.525 8.664631 3.507886 32.985782 23.253554
2004-04-14 07:27:23 51°27.759 2°59.551 8.664631 3.507886 32.985782 23.253554
2004-04-14 07:27:28 51°27.774 2°59.572 8.66329 3.50757 32.983251 23.017589
2004-04-14 07:27:33 51°27.79 2°59.594 8.66487 3.507359 32.980279 22.91646
2004-04-14 07:27:39 51°27.808 2°59.62 8.668461 3.507465 32.98138 22.983879
2004-04-14 07:27:43 51°27.819 2°59.637 8.667838 3.507254 32.979178 23.051298
2004-04-14 07:27:49 51°27.836 2°59.665 8.671477 3.507149 32.977307 23.152426
2004-04-14 07:27:53 51°27.848 2°59.684 8.671477 3.507149 32.977307 23.152426
2004-04-14 07:27:57 51°27.858 2°59.703 8.664583 3.507254 32.978408 23.860324
2004-04-14 07:28:04 51°27.878 2°59.736 8.664152 3.507465 32.978296 23.792905
2004-04-14 07:28:09 51°27.891 2°59.76 8.665062 3.507465 32.975984 24.096289
2004-04-14 07:28:13 51°27.902 2°59.779 8.661327 3.507465 32.975213 23.961452
2004-04-14 07:28:19 51°27.918 2°59.809 8.65855 3.506833 32.970151 23.792905
2004-04-14 07:28:23 51°27.929 2°59.828 8.65855 3.506833 32.970151 23.792905
2004-04-14 07:28:28 51°27.943 2°59.852 8.654719 3.506411 32.96652 23.388392
2004-04-14 07:28:33 51°27.956 2°59.877 8.651894 3.505884 32.9641 23.320973
2004-04-14 07:28:37 51°27.967 2°59.896 8.651368 3.505147 32.956396 22.747913
2004-04-14 07:28:44 51°27.986 2°59.93 8.651751 3.504093 32.946932 22.613076
2004-04-14 07:28:49 51°27.998 2°59.956 8.655342 3.503251 32.941208 23.219845
2004-04-14 07:28:53 51°28.008 2°59.977 8.655342 3.503251 32.941208 23.219845
2004-04-14 07:28:59 51°28.023 3°0.009 8.657257 3.501986 32.931851 21.837759
2004-04-14 07:29:03 51°28.032 3°0.03 8.652804 3.501249 32.925687 21.938888
2004-04-14 07:29:08 51°28.043 3°0.057 8.655007 3.500617 32.918313 21.028734
2004-04-14 07:29:13 51°28.055 3°0.084 8.655198 3.500406 32.914573 19.983742
2004-04-14 07:29:19 51°28.068 3°0.117 8.656778 3.499879 32.9083 19.680358
2004-04-14 07:29:24 51°28.079 3°0.144 8.656778 3.499879 32.9083 19.680358
2004-04-14 07:29:29 51°28.091 3°0.171 8.659747 3.499458 32.904668 18.803913
2004-04-14 07:29:33 51°28.1 3°0.193 8.661231 3.499142 32.900597 18.331982
2004-04-14 07:29:39 51°28.113 3°0.225 8.662237 3.498404 32.892894 17.826341
2004-04-14 07:29:43 51°28.122 3°0.247 8.666833 3.49872 32.895426 18.197144
2004-04-14 07:29:49 51°28.136 3°0.279 8.672434 3.498299 32.890256 17.758922
2004-04-14 07:29:53 51°28.146 3°0.301 8.672434 3.498299 32.890256 17.758922
2004-04-14 07:29:59 51°28.159 3°0.333 8.678705 3.497983 32.884648 17.590375
2004-04-14 07:30:04 51°28.17 3°0.36 8.689904 3.497245 32.876178 17.522956
2004-04-14 07:30:09 51°28.182 3°0.387 8.697561 3.497456 32.876841 16.579093
2004-04-14 07:30:13 51°28.191 3°0.409 8.706796 3.497456 32.871463 16.74764
2004-04-14 07:30:19 51°28.205 3°0.441 8.714307 3.497667 32.869053 16.545383
2004-04-14 07:30:23 51°28.215 3°0.462 8.714307 3.497667 32.869053 16.545383
2004-04-14 07:30:29 51°28.23 3°0.493 8.718134 3.497983 32.865441 16.107161
2004-04-14 07:30:33 51°28.239 3°0.515 8.721339 3.498509 32.863261 15.803777
2004-04-14 07:30:39 51°28.255 3°0.545 8.723874 3.499141 32.86295 15.567811
2004-04-14 07:30:43 51°28.264 3°0.565 8.726649 3.499773 32.861871 15.095879
2004-04-14 07:30:49 51°28.28 3°0.596 8.725931 3.5003 32.862763 15.365554
2004-04-14 07:30:53 51°28.29 3°0.617 8.725931 3.5003 32.862763 15.365554
2004-04-14 07:30:57 51°28.301 3°0.637 8.727366 3.500616 32.86069 15.264426
2004-04-14 07:31:04 51°28.319 3°0.672 8.728992 3.501143 32.863883 15.466683
2004-04-14 07:31:09 51°28.331 3°0.698 8.728992 3.501037 32.859717 15.331845
2004-04-14 07:31:13 51°28.341 3°0.718 8.728514 3.501037 32.858184 15.264426
2004-04-14 07:31:19 51°28.357 3°0.749 8.730427 3.500511 32.852692 14.657657
2004-04-14 07:31:23 51°28.367 3°0.769 8.730427 3.500511 32.852692 14.657657
2004-04-14 07:31:28 51°28.38 3°0.795 8.729949 3.500195 32.847864 15.197007
2004-04-14 07:31:33 51°28.393 3°0.82 8.729805 3.499879 32.843036 14.657657
2004-04-14 07:31:39 51°28.408 3°0.85 8.728083 3.499352 32.837545 15.230717
2004-04-14 07:31:44 51°28.421 3°0.876 8.728801 3.499246 32.835681 14.556529
2004-04-14 07:31:49 51°28.434 3°0.901 8.730475 3.49893 32.832386 14.48911
2004-04-14 07:31:53 51°28.444 3°0.922 8.730475 3.49893 32.832386 14.48911
2004-04-14 07:31:59 51°28.46 3°0.952 8.727653 3.498298 32.826563 14.050888
2004-04-14 07:32:03 51°28.47 3°0.972 8.729805 3.497455 32.817012 14.792494
2004-04-14 07:32:08 51°28.483 3°0.997 8.725022 3.497771 32.821072 14.927332
2004-04-14 07:32:13 51°28.496 3°1.023 8.724448 3.497139 32.814483 14.994751
2004-04-14 07:32:19 51°28.512 3°1.054 8.722344 3.496296 32.805698 14.152016
2004-04-14 07:32:24 51°28.525 3°1.079 8.722344 3.496296 32.805698 14.152016
2004-04-14 07:32:29 51°28.537 3°1.105 8.720813 3.495348 32.796581 13.713794
2004-04-14 07:32:33 51°28.548 3°1.125 8.721339 3.494505 32.788561 13.3767
2004-04-14 07:32:39 51°28.563 3°1.155 8.723539 3.493873 32.782738 12.80364
2004-04-14 07:32:43 51°28.574 3°1.176 8.722104 3.492925 32.774385 12.533965
2004-04-14 07:32:48 51°28.586 3°1.201 8.722391 3.492293 32.770091 12.129452
2004-04-14 07:32:53 51°28.6 3°1.226 8.722391 3.492293 32.770091 12.129452
2004-04-14 07:32:59 51°28.615 3°1.257 8.717704 3.491766 32.7646 12.062033
2004-04-14 07:33:04 51°28.628 3°1.282 8.715073 3.491977 32.766032 11.792358
2004-04-14 07:33:09 51°28.641 3°1.308 8.714498 3.491556 32.76164 11.556392
2004-04-14 07:33:13 51°28.651 3°1.328 8.712728 3.491556 32.762404 11.151879
2004-04-14 07:33:19 51°28.667 3°1.358 8.712681 3.490818 32.756246 11.960905
2004-04-14 07:33:23 51°28.677 3°1.378 8.712681 3.490818 32.756246 11.960905
2004-04-14 07:33:29 51°28.693 3°1.409 8.715216 3.490397 32.753383 11.927195
2004-04-14 07:33:33 51°28.704 3°1.429 8.71091 3.48987 32.750185 11.758648
2004-04-14 07:33:37 51°28.714 3°1.449 8.712633 3.489449 32.748085 11.859777
2004-04-14 07:33:43 51°28.729 3°1.48 8.714594 3.489027 32.742928 11.792358
2004-04-14 07:33:49 51°28.745 3°1.51 8.716795 3.488817 32.740732 12.23058
2004-04-14 07:33:53 51°28.755 3°1.53 8.716795 3.488817 32.740732 12.23058
2004-04-14 07:33:59 51°28.771 3°1.56 8.717512 3.488711 32.741162 11.65752
2004-04-14 07:34:03 51°28.781 3°1.581 8.719569 3.4885 32.738966 11.758648
2004-04-14 07:34:08 51°28.794 3°1.606 8.720622 3.488922 32.741066 12.095742
2004-04-14 07:34:13 51°28.808 3°1.631 8.72397 3.488922 32.740302 12.163161
2004-04-14 07:34:19 51°28.824 3°1.662 8.723205 3.489238 32.742068 12.163161
2004-04-14 07:34:23 51°28.834 3°1.682 8.723205 3.489238 32.742068 12.163161
2004-04-14 07:34:29 51°28.85 3°1.713 8.726027 3.489343 32.743166 11.69123
2004-04-14 07:34:33 51°28.86 3°1.733 8.72397 3.489554 32.74307 11.724939
2004-04-14 07:34:39 51°28.875 3°1.764 8.723731 3.489238 32.737484 12.028324
2004-04-14 07:34:43 51°28.886 3°1.784 8.724353 3.489554 32.742306 11.859777
2004-04-14 07:34:49 51°28.902 3°1.815 8.722965 3.489132 32.735623 11.253007
2004-04-14 07:34:53 51°28.912 3°1.835 8.722965 3.489132 32.735623 11.253007
2004-04-14 07:34:59 51°28.928 3°1.866 8.725883 3.488816 32.730802 11.286717
2004-04-14 07:35:04 51°28.941 3°1.891 8.73057 3.488395 32.726411 11.65752
2004-04-14 07:35:09 51°28.953 3°1.917 8.733105 3.488184 32.724215 11.151879
2004-04-14 07:35:13 51°28.964 3°1.937 8.737362 3.487868 32.721685 11.11817
2004-04-14 07:35:19 51°28.979 3°1.968 8.742048 3.487763 32.719824 10.949623
2004-04-14 07:35:23 51°28.99 3°1.989 8.742048 3.487763 32.719824 10.949623
2004-04-14 07:35:29 51°29.005 3°2.02 8.748886 3.487763 32.717534 10.949623
2004-04-14 07:35:33 51°29.016 3°2.04 8.754384 3.487868 32.716342 11.017042
2004-04-14 07:35:39 51°29.031 3°2.071 8.75534 3.488079 32.715485 10.612529
2004-04-14 07:35:44 51°29.045 3°2.096 8.757731 3.488816 32.719352 10.106888
2004-04-14 07:35:49 51°29.058 3°2.121 8.758496 3.489132 32.718066 10.208016
2004-04-14 07:35:53 51°29.069 3°2.141 8.758496 3.489132 32.718066 10.208016
2004-04-14 07:35:59 51°29.085 3°2.172 8.761364 3.489554 32.717115 9.837212
2004-04-14 07:36:03 51°29.095 3°2.192 8.761412 3.489975 32.719215 10.073178
2004-04-14 07:36:09 51°29.111 3°2.223 8.761794 3.489659 32.712873 9.129315
2004-04-14 07:36:12 51°29.119 3°2.238 8.766049 3.48987 32.71278 9.196734
2004-04-14 07:36:19 51°29.137 3°2.273 8.769108 3.49008 32.713448 9.533828
2004-04-14 07:36:24 51°29.15 3°2.299 8.769108 3.49008 32.713448 9.533828
2004-04-14 07:36:29 51°29.164 3°2.325 8.772119 3.49008 32.712686 9.129315
2004-04-14 07:36:33 51°29.174 3°2.345 8.775991 3.490186 32.711496 8.927059
2004-04-14 07:36:39 51°29.19 3°2.376 8.778906 3.49008 32.709637 8.927059
2004-04-14 07:36:44 51°29.203 3°2.401 8.78206 3.489869 32.704395 9.095606
2004-04-14 07:36:49 51°29.216 3°2.426 8.783446 3.490396 32.708354 8.927059
2004-04-14 07:36:53 51°29.227 3°2.447 8.783446 3.490396 32.708354 8.927059
2004-04-14 07:36:59 51°29.243 3°2.477 8.782203 3.490291 32.703447 8.85964
2004-04-14 07:37:04 51°29.256 3°2.503 8.783016 3.490607 32.703689 8.893349
2004-04-14 07:37:08 51°29.266 3°2.523 8.778954 3.490818 32.702834 8.421418
2004-04-14 07:37:14 51°29.282 3°2.554 8.776755 3.491028 32.702742 8.82593
2004-04-14 07:37:18 51°29.292 3°2.575 8.771307 3.491028 32.701219 8.589965
2004-04-14 07:37:23 51°29.305 3°2.6 8.771307 3.491028 32.701219 8.589965
2004-04-14 07:37:29 51°29.32 3°2.631 8.767865 3.490923 32.700122 8.016905
2004-04-14 07:37:33 51°29.33 3°2.652 8.762081 3.491028 32.704265 8.353999
2004-04-14 07:37:39 51°29.346 3°2.683 8.75754 3.490818 32.702834 8.050614
2004-04-14 07:37:43 51°29.356 3°2.704 8.754145 3.490818 32.705882 9.028187
2004-04-14 07:37:49 51°29.372 3°2.734 8.749603 3.490818 32.709691 7.814648
2004-04-14 07:37:54 51°29.385 3°2.76 8.749603 3.490818 32.709691 7.814648
2004-04-14 07:37:59 51°29.398 3°2.785 8.74573 3.490607 32.711309 7.612392